<- Previous Day | Today | Next Day ->

All Data for 21 April 2021

 

Time A - D Temp A - D Dew Point A - D Humidity A - D Pressure A - D Wind A - D Wind Dir Gust A - D Rain Rate A - D Rain Total
00:00 6.1 3.1 81 1016.9 0.0 N 0.0 0.0 0.0
00:01 6.1 3.1 81 1017.0 0.0 N 0.0 0.0 0.0
00:02 6.1 3.1 81 1016.8 0.0 N 0.0 0.0 0.0
00:03 6.1 3.1 81 1016.8 0.0 N 0.0 0.0 0.0
00:04 6.0 3.0 81 1016.9 0.0 N 0.0 0.0 0.0
00:05 6.0 3.0 81 1016.7 0.0 N 0.0 0.0 0.0
00:06 6.0 3.0 81 1016.8 0.0 N 0.0 0.0 0.0
00:07 6.0 3.0 81 1016.9 0.7 N 0.7 0.0 0.0
00:08 6.0 3.0 81 1016.9 0.7 N 0.7 0.0 0.0
00:09 6.0 3.0 81 1016.9 0.0 N 0.7 0.0 0.0
00:10 6.0 3.0 81 1016.9 0.7 N 0.7 0.0 0.0
00:11 6.0 3.0 81 1016.9 0.7 N 0.7 0.0 0.0
00:12 6.0 3.0 81 1017.0 0.7 N 0.7 0.0 0.0
00:13 6.0 3.0 81 1016.9 0.7 N 0.7 0.0 0.0
00:14 6.0 3.0 81 1016.7 0.7 N 0.7 0.0 0.0
00:15 6.0 3.0 81 1016.9 0.0 N 0.7 0.0 0.0
00:16 5.9 2.9 81 1016.8 0.7 N 0.7 0.0 0.0
00:17 5.9 2.9 81 1016.8 0.0 N 0.7 0.0 0.0
00:18 5.9 2.9 81 1016.9 0.0 N 0.7 0.0 0.0
00:19 6.0 3.0 81 1016.8 0.7 N 0.7 0.0 0.0
00:20 6.0 3.0 81 1016.9 0.7 N 0.7 0.0 0.0
00:21 6.0 3.2 82 1016.8 1.6 N 1.6 0.0 0.0
00:22 6.0 3.2 82 1016.8 1.6 N 1.6 0.0 0.0
00:23 6.0 3.2 82 1016.9 1.6 N 1.6 0.0 0.0
00:25 6.1 3.3 82 1016.9 0.7 N 1.6 0.0 0.0
00:26 6.1 3.3 82 1016.8 0.7 N 1.6 0.0 0.0
00:27 6.1 3.3 82 1016.7 0.7 N 1.6 0.0 0.0
00:28 6.1 3.3 82 1016.8 0.0 N 1.6 0.0 0.0
00:29 6.2 3.4 82 1016.7 1.6 NW 1.6 0.0 0.0
00:30 6.2 3.4 82 1017.0 1.6 N 1.6 0.0 0.0
00:31 6.2 3.4 82 1016.9 1.6 N 1.6 0.0 0.0
00:32 6.3 3.6 83 1017.0 0.7 N 1.6 0.0 0.0
00:33 6.3 3.6 83 1016.9 2.2 NE 2.2 0.0 0.0
00:34 6.4 3.7 83 1017.0 2.2 N 2.2 0.0 0.0
00:35 6.4 3.7 83 1016.9 1.6 N 2.2 0.0 0.0
00:36 6.5 3.8 83 1016.8 1.6 N 2.2 0.0 0.0
00:37 6.6 4.1 84 1016.9 1.6 NE 2.2 0.0 0.0
00:39 6.6 4.1 84 1016.9 0.7 N 2.2 0.0 0.0
00:40 6.7 4.2 84 1016.9 0.7 NW 2.2 0.0 0.0
00:41 6.7 4.2 84 1017.0 0.7 N 2.2 0.0 0.0
00:42 6.8 4.3 84 1017.1 0.7 NW 2.2 0.0 0.0
00:43 6.8 4.5 85 1016.7 0.7 N 2.2 0.0 0.0
00:44 6.9 4.6 85 1017.0 0.7 N 2.2 0.0 0.0
00:45 6.9 4.6 85 1016.9 0.7 N 1.6 0.0 0.0
00:46 6.9 4.6 85 1016.8 0.7 NW 1.6 0.0 0.0
00:47 7.0 4.7 85 1016.9 0.7 NW 1.6 0.0 0.0
00:48 7.0 4.7 85 1017.0 0.7 N 1.6 0.0 0.0
00:49 7.1 4.8 85 1017.2 0.0 N 0.7 0.0 0.0
00:50 7.1 4.8 85 1017.0 0.0 N 0.7 0.0 0.0
00:51 7.1 4.9 86 1017.1 0.0 N 0.7 0.0 0.0
00:52 7.2 5.0 86 1016.8 0.0 N 0.7 0.0 0.0
00:54 7.2 5.0 86 1016.7 0.7 N 0.7 0.0 0.0
00:55 7.2 5.0 86 1016.9 0.7 N 0.7 0.0 0.0
00:56 7.3 5.1 86 1017.0 0.7 N 0.7 0.0 0.0
00:57 7.3 5.1 86 1016.9 0.0 N 0.7 0.0 0.0
00:58 7.3 5.1 86 1016.9 0.7 N 0.7 0.0 0.0
00:59 7.2 5.0 86 1017.0 0.7 NW 0.7 0.0 0.0
01:00 7.2 4.8 85 1017.0 0.7 N 0.7 0.0 0.0
01:01 7.2 4.8 85 1017.0 0.7 N 0.7 0.0 0.0
01:02 7.2 4.8 85 1017.0 0.7 N 0.7 0.0 0.0
01:03 7.2 4.8 85 1016.8 0.7 N 0.7 0.0 0.0
01:04 7.2 4.8 85 1017.0 0.7 N 0.7 0.0 0.0
01:05 7.2 4.8 85 1016.9 0.7 N 0.7 0.0 0.0
01:06 7.1 4.6 84 1017.1 1.6 NE 1.6 0.0 0.0
01:07 7.2 4.7 84 1016.8 1.6 NE 1.6 0.0 0.0
01:09 7.2 4.7 84 1017.0 1.6 NE 1.6 0.0 0.0
01:10 7.2 4.7 84 1016.8 2.2 NE 2.2 0.0 0.0
01:11 7.3 4.8 84 1017.1 2.2 NE 2.2 0.0 0.0
01:12 7.3 4.8 84 1016.9 2.2 NE 2.2 0.0 0.0
01:13 7.4 4.9 84 1017.0 2.2 NE 2.2 0.0 0.0
01:14 7.4 4.9 84 1017.0 2.2 NE 2.2 0.0 0.0
01:15 7.4 4.9 84 1016.8 2.2 E 2.2 0.0 0.0
01:16 7.5 4.3 80 1017.0 2.2 NE 2.2 0.0 0.0
01:17 7.6 4.4 80 1016.8 2.2 N 2.2 0.0 0.0
01:18 7.6 4.4 80 1016.8 2.2 E 2.2 0.0 0.0
01:19 7.6 4.4 80 1016.9 3.1 NE 3.1 0.0 0.0
01:20 7.7 4.3 79 1016.8 3.1 NE 3.1 0.0 0.0
01:21 7.7 4.3 79 1017.0 3.1 ENE 3.1 0.0 0.0
01:23 7.8 4.4 79 1016.8 3.1 E 3.1 0.0 0.0
01:24 7.8 4.4 79 1016.9 2.2 NE 3.1 0.0 0.0
01:25 7.9 4.5 79 1016.9 2.2 NE 3.1 0.0 0.0
01:26 7.9 4.5 79 1016.9 2.2 NE 3.1 0.0 0.0
01:27 7.9 4.5 79 1016.8 3.1 E 3.1 0.0 0.0
01:28 8.0 4.6 79 1016.7 3.1 NE 3.1 0.0 0.0
01:29 8.0 4.6 79 1016.8 3.1 NE 3.1 0.0 0.0
01:30 8.0 4.6 79 1016.6 2.2 E 3.1 0.0 0.0
01:31 8.0 4.4 78 1016.7 3.1 NE 3.1 0.0 0.0
01:32 8.1 4.5 78 1016.8 3.1 NE 3.1 0.0 0.0
01:33 8.1 4.3 77 1016.9 3.1 NE 3.1 0.0 0.0
01:34 8.1 4.3 77 1016.9 2.2 NE 3.1 0.0 0.0
01:35 8.2 4.4 77 1016.7 2.2 NE 3.1 0.0 0.0
01:37 8.2 4.2 76 1016.8 2.2 NE 3.1 0.0 0.0
01:38 8.2 4.2 76 1016.9 3.1 NE 3.1 0.0 0.0
01:39 8.2 4.2 76 1016.9 2.2 NE 3.1 0.0 0.0
01:40 8.2 4.0 75 1016.8 2.2 NE 3.1 0.0 0.0
01:41 8.2 4.0 75 1016.9 1.6 E 3.1 0.0 0.0
01:42 8.2 4.0 75 1016.9 1.6 E 3.1 0.0 0.0
01:43 8.1 3.9 75 1016.8 0.0 E 3.1 0.0 0.0
01:44 8.1 3.7 74 1016.8 0.0 S 3.1 0.0 0.0
01:45 8.1 3.7 74 1016.6 0.0 S 3.1 0.0 0.0
01:46 8.0 3.7 74 1016.9 0.0 S 3.1 0.0 0.0
01:47 7.9 3.6 74 1016.7 0.0 S 3.1 0.0 0.0
01:48 7.9 3.6 74 1016.6 0.0 S 2.2 0.0 0.0
01:49 7.8 3.5 74 1016.9 0.0 S 2.2 0.0 0.0
01:50 7.8 3.6 75 1016.8 0.0 S 2.2 0.0 0.0
01:51 7.7 3.6 75 1017.1 0.0 S 1.6 0.0 0.0
01:53 7.7 3.6 75 1016.6 0.7 S 0.7 0.0 0.0
01:54 7.6 3.5 75 1016.9 0.7 S 0.7 0.0 0.0
01:55 7.6 3.5 75 1016.7 0.0 S 0.7 0.0 0.0
01:56 7.6 3.6 76 1016.7 0.0 S 0.7 0.0 0.0
01:57 7.6 3.6 76 1016.8 0.0 S 0.7 0.0 0.0
01:58 7.6 3.6 76 1016.7 0.0 S 0.7 0.0 0.0
01:59 7.6 3.6 76 1016.7 0.0 S 0.7 0.0 0.0
02:00 7.5 3.5 76 1016.7 0.7 W 0.7 0.0 0.0
02:01 7.5 3.5 76 1016.8 0.0 W 0.7 0.0 0.0
02:02 7.5 3.5 76 1016.6 0.0 W 0.7 0.0 0.0
02:03 7.5 3.7 77 1016.5 0.0 W 0.7 0.0 0.0
02:04 7.5 3.7 77 1016.7 0.0 W 0.7 0.0 0.0
02:05 7.5 3.7 77 1016.5 0.0 W 0.7 0.0 0.0
02:06 7.5 3.7 77 1016.5 0.0 W 0.7 0.0 0.0
02:08 7.6 3.8 77 1016.5 0.0 W 0.7 0.0 0.0
02:09 7.6 3.8 77 1016.7 0.0 W 0.7 0.0 0.0
02:10 7.6 3.8 77 1016.7 0.0 W 0.7 0.0 0.0
02:11 7.6 3.8 77 1016.6 0.0 W 0.0 0.0 0.0
02:12 7.6 3.8 77 1016.3 0.0 W 0.0 0.0 0.0
02:13 7.6 4.0 78 1016.4 0.0 W 0.0 0.0 0.0
02:14 7.6 4.0 78 1016.8 0.0 W 0.0 0.0 0.0
02:15 7.6 4.0 78 1016.6 0.0 W 0.0 0.0 0.0
02:16 7.6 4.0 78 1016.4 0.0 W 0.0 0.0 0.0
02:17 7.6 4.0 78 1016.4 0.0 W 0.0 0.0 0.0
02:18 7.6 4.0 78 1016.5 0.0 W 0.0 0.0 0.0
02:19 7.6 4.0 78 1016.6 0.0 W 0.0 0.0 0.0
02:20 7.6 4.0 78 1016.6 0.0 W 0.0 0.0 0.0
02:22 7.6 4.0 78 1016.6 0.0 W 0.0 0.0 0.0
02:23 7.6 4.0 78 1016.4 0.0 W 0.0 0.0 0.0
02:24 7.6 4.0 78 1016.7 0.0 W 0.0 0.0 0.0
02:25 7.6 4.0 78 1016.6 0.0 W 0.0 0.0 0.0
02:26 7.6 4.0 78 1016.5 0.0 W 0.0 0.0 0.0
02:27 7.6 4.0 78 1016.4 0.7 NE 0.7 0.0 0.0
02:28 7.6 4.0 78 1016.3 0.7 NE 0.7 0.0 0.0
02:29 7.6 4.0 78 1016.4 0.7 NE 0.7 0.0 0.0
02:30 7.6 4.0 78 1016.5 0.7 NE 0.7 0.0 0.0
02:31 7.6 4.0 78 1016.5 0.7 NE 0.7 0.0 0.0
02:32 7.6 4.0 78 1016.3 0.0 NE 0.7 0.0 0.0
02:33 7.6 4.0 78 1016.6 0.7 NE 0.7 0.0 0.0
02:34 7.6 4.0 78 1016.5 0.0 NE 0.7 0.0 0.0
02:36 7.6 4.0 78 1016.4 0.0 NE 0.7 0.0 0.0
02:37 7.6 4.0 78 1016.6 0.7 NE 0.7 0.0 0.0
02:38 7.6 4.0 78 1016.4 0.7 NE 0.7 0.0 0.0
02:39 7.6 4.0 78 1016.6 0.0 NE 0.7 0.0 0.0
02:40 7.6 3.8 77 1016.5 0.0 NE 0.7 0.0 0.0
02:41 7.6 3.8 77 1016.3 0.0 NE 0.7 0.0 0.0
02:42 7.6 3.8 77 1016.5 0.0 NE 0.7 0.0 0.0
02:43 7.6 3.8 77 1016.6 0.0 NE 0.7 0.0 0.0
02:44 7.6 3.8 77 1016.4 0.0 NE 0.7 0.0 0.0
02:45 7.6 4.0 78 1016.5 0.0 NE 0.7 0.0 0.0
02:46 7.5 3.9 78 1016.5 0.0 NE 0.7 0.0 0.0
02:47 7.5 3.9 78 1016.4 0.0 NE 0.7 0.0 0.0
02:48 7.5 3.9 78 1016.5 0.0 NE 0.0 0.0 0.0
02:50 7.5 3.9 78 1016.5 0.0 NE 0.0 0.0 0.0
02:51 7.5 3.9 78 1016.5 0.0 NE 0.0 0.0 0.0
02:52 7.5 3.9 78 1016.3 0.0 NE 0.0 0.0 0.0
02:53 7.5 3.9 78 1016.5 0.0 NE 0.0 0.0 0.0
02:54 7.5 3.9 78 1016.6 0.7 N 0.7 0.0 0.0
02:55 7.5 3.9 78 1016.4 0.7 N 0.7 0.0 0.0
02:56 7.5 3.9 78 1016.4 1.6 N 1.6 0.0 0.0
02:57 7.5 3.9 78 1016.2 1.6 N 1.6 0.0 0.0
02:58 7.6 4.0 78 1016.4 1.6 N 1.6 0.0 0.0
02:59 7.6 4.0 78 1016.4 0.7 N 1.6 0.0 0.0
03:00 7.6 4.0 78 1016.6 0.7 N 1.6 0.0 0.0
03:01 7.6 4.0 78 1016.4 0.7 N 1.6 0.0 0.0
03:02 7.6 4.0 78 1016.4 0.7 N 1.6 0.0 0.0
03:05 7.6 4.0 78 1016.4 0.7 N 1.6 0.0 0.0
03:06 7.6 4.0 78 1016.2 0.7 N 1.6 0.0 0.0
03:07 7.7 3.9 77 1016.3 1.6 NE 1.6 0.0 0.0
03:08 7.7 3.9 77 1016.3 1.6 NE 1.6 0.0 0.0
03:09 7.7 3.9 77 1016.4 1.6 NE 1.6 0.0 0.0
03:10 7.7 3.9 77 1016.4 1.6 NE 1.6 0.0 0.0
03:11 7.7 3.7 76 1016.4 1.6 NE 1.6 0.0 0.0
03:12 7.7 3.7 76 1016.3 0.7 NE 1.6 0.0 0.0
03:13 7.7 3.6 75 1016.4 0.7 N 1.6 0.0 0.0
03:14 7.7 3.6 75 1016.4 0.7 NE 1.6 0.0 0.0
03:15 7.7 3.6 75 1016.4 0.0 NE 1.6 0.0 0.0
03:16 7.8 3.6 75 1016.3 0.7 NE 1.6 0.0 0.0
03:18 7.8 3.5 74 1016.4 1.6 NE 1.6 0.0 0.0
03:19 7.8 3.5 74 1016.4 1.6 NE 1.6 0.0 0.0
03:20 7.8 3.5 74 1016.3 1.6 NE 1.6 0.0 0.0
03:21 7.8 3.5 74 1016.3 1.6 NE 1.6 0.0 0.0
03:22 7.8 3.5 74 1016.3 1.6 NE 1.6 0.0 0.0
03:23 7.7 3.4 74 1016.2 1.6 NE 1.6 0.0 0.0
03:24 7.7 3.4 74 1016.2 3.1 NE 3.1 0.0 0.0
03:25 7.7 3.4 74 1016.4 2.2 NE 3.1 0.0 0.0
03:26 7.7 3.4 74 1016.2 2.2 NE 3.1 0.0 0.0
03:27 7.7 3.4 74 1016.4 1.6 NE 3.1 0.0 0.0
03:28 7.7 3.2 73 1016.4 1.6 NE 3.1 0.0 0.0
03:29 7.7 3.2 73 1016.5 1.6 NE 3.1 0.0 0.0
03:30 7.7 3.2 73 1016.2 2.2 NE 3.1 0.0 0.0
03:32 7.7 3.0 72 1016.6 2.2 NE 3.1 0.0 0.0
03:33 7.8 3.1 72 1016.4 2.2 NE 3.1 0.0 0.0
03:34 7.8 2.9 71 1016.3 2.2 NE 3.1 0.0 0.0
03:35 7.8 2.9 71 1016.4 2.2 NE 2.2 0.0 0.0
03:36 7.8 2.9 71 1016.3 2.2 NE 2.2 0.0 0.0
03:37 7.9 2.8 70 1016.3 2.2 NE 2.2 0.0 0.0
03:38 7.9 2.8 70 1016.3 3.1 NE 3.1 0.0 0.0
03:39 7.9 2.8 70 1016.2 2.2 NE 3.1 0.0 0.0
03:40 8.0 2.7 69 1016.2 1.6 NE 3.1 0.0 0.0
03:41 8.0 2.7 69 1016.4 2.2 NE 3.1 0.0 0.0
03:42 8.0 2.7 69 1016.2 2.2 NE 3.1 0.0 0.0
03:43 8.1 2.8 69 1016.4 2.2 ENE 3.1 0.0 0.0
03:44 8.1 2.6 68 1016.3 2.2 NNE 3.1 0.0 0.0
03:46 8.2 2.6 68 1016.2 2.2 NE 3.1 0.0 0.0
03:47 8.2 2.4 67 1016.4 2.2 NE 3.1 0.0 0.0
03:48 8.2 2.4 67 1016.4 2.2 NE 3.1 0.0 0.0
03:49 8.3 2.5 67 1016.2 2.2 NE 3.1 0.0 0.0
03:50 8.3 2.3 66 1016.1 2.2 NE 3.1 0.0 0.0
03:51 8.3 2.3 66 1016.2 2.2 NE 3.1 0.0 0.0
03:52 8.3 2.3 66 1016.4 2.2 NE 3.1 0.0 0.0
03:53 8.4 2.4 66 1016.4 2.2 E 3.1 0.0 0.0
03:54 8.4 2.4 66 1016.2 2.2 E 3.1 0.0 0.0
03:55 8.4 2.2 65 1016.3 3.1 NE 3.1 0.0 0.0
03:56 8.4 2.2 65 1016.1 3.1 E 3.1 0.0 0.0
03:57 8.5 2.3 65 1016.2 3.1 NE 3.1 0.0 0.0
03:58 8.5 2.3 65 1016.3 2.2 NE 3.1 0.0 0.0
04:00 8.5 2.3 65 1016.2 1.6 NE 3.1 0.0 0.0
04:01 8.5 2.3 65 1016.4 1.6 NE 3.1 0.0 0.0
04:02 8.5 2.3 65 1016.4 1.6 NE 3.1 0.0 0.0
04:03 8.5 2.3 65 1016.3 1.6 NE 3.1 0.0 0.0
04:04 8.5 2.1 64 1016.1 2.2 NE 3.1 0.0 0.0
04:05 8.5 2.1 64 1016.3 2.2 NE 3.1 0.0 0.0
04:06 8.5 2.1 64 1016.2 2.2 NE 3.1 0.0 0.0
04:07 8.5 2.1 64 1016.1 2.2 NE 3.1 0.0 0.0
04:08 8.6 2.2 64 1016.2 2.2 NE 2.2 0.0 0.0
04:09 8.6 2.2 64 1016.4 2.2 NE 2.2 0.0 0.0
04:10 8.6 2.2 64 1016.1 3.1 NE 3.1 0.0 0.0
04:11 8.6 2.2 64 1016.3 3.1 NE 3.1 0.0 0.0
04:12 8.6 2.2 64 1016.3 2.2 NE 3.1 0.0 0.0
04:14 8.6 2.2 64 1016.3 3.1 E 3.1 0.0 0.0
04:15 8.6 2.2 64 1016.3 3.1 E 3.1 0.0 0.0
04:16 8.6 2.0 63 1016.3 3.1 NE 3.1 0.0 0.0
04:17 8.6 2.0 63 1016.4 3.1 NE 3.1 0.0 0.0
04:18 8.7 2.1 63 1016.5 2.2 N 3.1 0.0 0.0
04:19 8.7 2.1 63 1016.2 3.1 NE 3.1 0.0 0.0
04:20 8.7 2.1 63 1016.4 3.1 NE 3.1 0.0 0.0
04:21 8.7 2.1 63 1016.4 3.1 NE 3.1 0.0 0.0
04:22 8.7 2.1 63 1016.3 3.1 NE 3.1 0.0 0.0
04:23 8.7 2.1 63 1016.0 3.8 NE 3.8 0.0 0.0
04:24 8.7 2.1 63 1016.4 3.8 NE 3.8 0.0 0.0
04:25 8.7 2.1 63 1016.5 3.1 NE 3.8 0.0 0.0
04:26 8.8 2.1 63 1016.4 3.1 NE 3.8 0.0 0.0
04:28 8.8 2.1 63 1016.4 3.1 NE 3.8 0.0 0.0
04:29 8.8 2.1 63 1016.2 3.1 NE 3.8 0.0 0.0
04:30 8.8 2.1 63 1016.2 2.2 N 3.8 0.0 0.0
04:31 8.8 2.1 63 1016.3 2.2 E 3.8 0.0 0.0
04:32 8.8 1.9 62 1016.3 2.2 NE 3.8 0.0 0.0
04:33 8.8 1.9 62 1016.3 2.2 NE 3.8 0.0 0.0
04:34 8.8 1.9 62 1016.1 2.2 NE 3.8 0.0 0.0
04:35 8.8 1.9 62 1016.4 2.2 NNW 3.1 0.0 0.0
04:36 8.8 1.9 62 1016.5 1.6 NW 3.1 0.0 0.0
04:37 8.8 1.9 62 1016.2 1.6 N 3.1 0.0 0.0
04:38 8.8 1.9 62 1016.4 1.6 NE 3.1 0.0 0.0
04:39 8.8 1.9 62 1016.5 1.6 N 2.2 0.0 0.0
04:40 8.8 1.9 62 1016.3 1.6 N 2.2 0.0 0.0
04:42 8.8 1.9 62 1016.4 1.6 NW 2.2 0.0 0.0
04:43 8.8 1.9 62 1016.4 1.6 NW 2.2 0.0 0.0
04:44 8.8 1.9 62 1016.3 2.2 E 2.2 0.0 0.0
04:45 8.8 1.9 62 1016.2 2.2 NE 2.2 0.0 0.0
04:46 8.8 1.9 62 1016.2 1.6 NE 2.2 0.0 0.0
04:47 8.8 1.9 62 1016.5 1.6 NE 2.2 0.0 0.0
04:48 8.8 1.9 62 1016.3 2.2 NE 2.2 0.0 0.0
04:49 8.8 1.9 62 1016.4 2.2 NE 2.2 0.0 0.0
04:50 8.9 2.0 62 1016.4 3.1 NE 3.1 0.0 0.0
04:51 8.9 2.0 62 1016.3 3.1 NE 3.1 0.0 0.0
04:52 8.8 1.9 62 1016.2 2.2 NE 3.1 0.0 0.0
04:53 8.8 1.9 62 1016.4 2.2 E 3.1 0.0 0.0
04:54 8.8 1.9 62 1016.3 2.2 NE 3.1 0.0 0.0
04:56 8.8 1.9 62 1016.2 1.6 NE 3.1 0.0 0.0
04:57 8.8 1.9 62 1016.2 1.6 NE 3.1 0.0 0.0
04:58 8.8 1.9 62 1016.1 1.6 NE 3.1 0.0 0.0
04:59 8.8 1.9 62 1016.3 1.6 NE 3.1 0.0 0.0
05:00 8.8 1.9 62 1015.9 1.6 NE 3.1 0.0 0.0
05:01 8.8 1.9 62 1016.3 1.6 NE 3.1 0.0 0.0
05:02 8.8 1.9 62 1016.2 1.6 NE 3.1 0.0 0.0
05:03 8.8 1.9 62 1016.2 1.6 NE 3.1 0.0 0.0
05:04 8.8 1.9 62 1016.2 1.6 NE 2.2 0.0 0.0
05:05 8.8 1.9 62 1016.3 1.6 NE 2.2 0.0 0.0
05:06 8.8 1.9 62 1016.2 0.7 NE 1.6 0.0 0.0
05:07 8.8 1.9 62 1016.2 0.7 N 1.6 0.0 0.0
05:08 8.8 1.9 62 1016.1 0.7 N 1.6 0.0 0.0
05:10 8.8 2.1 63 1016.0 0.7 NE 1.6 0.0 0.0
05:11 8.8 2.1 63 1016.0 0.7 NE 1.6 0.0 0.0
05:12 8.7 2.1 63 1016.1 0.7 N 1.6 0.0 0.0
05:13 8.7 2.1 63 1016.1 0.7 N 1.6 0.0 0.0
05:14 8.7 2.1 63 1016.1 1.6 NE 1.6 0.0 0.0
05:15 8.7 2.1 63 1016.1 1.6 NE 1.6 0.0 0.0
05:16 8.6 2.0 63 1016.2 0.7 NE 1.6 0.0 0.0
05:17 8.6 2.0 63 1016.1 1.6 N 1.6 0.0 0.0
05:18 8.6 2.0 63 1016.2 1.6 N 1.6 0.0 0.0
05:19 8.5 1.9 63 1016.2 2.2 NW 2.2 0.0 0.0
05:20 8.5 1.9 63 1016.2 2.2 NE 2.2 0.0 0.0
05:21 8.5 1.9 63 1016.3 2.2 NNE 2.2 0.0 0.0
05:22 8.5 2.1 64 1016.3 2.2 NE 2.2 0.0 0.0
05:24 8.5 2.1 64 1016.3 2.2 NE 2.2 0.0 0.0
05:25 8.5 2.1 64 1016.1 2.2 NE 2.2 0.0 0.0
05:26 8.5 2.1 64 1016.2 2.2 NE 2.2 0.0 0.0
05:27 8.5 2.1 64 1016.2 2.2 NE 2.2 0.0 0.0
05:28 8.5 2.1 64 1015.9 2.2 E 2.2 0.0 0.0
05:29 8.5 2.3 65 1016.3 2.2 NE 2.2 0.0 0.0
05:30 8.5 2.3 65 1016.0 2.2 E 2.2 0.0 0.0
05:31 8.5 2.3 65 1016.3 2.2 NE 2.2 0.0 0.0
05:32 8.5 2.3 65 1016.2 2.2 NE 2.2 0.0 0.0
05:33 8.5 2.3 65 1016.2 2.2 NE 2.2 0.0 0.0
05:34 8.5 2.5 66 1016.1 2.2 NE 2.2 0.0 0.0
05:35 8.5 2.5 66 1016.1 2.2 NE 2.2 0.0 0.0
05:36 8.5 2.5 66 1016.2 2.2 NE 2.2 0.0 0.0
05:38 8.5 2.7 67 1016.2 3.1 NE 3.1 0.0 0.0
05:39 8.5 2.7 67 1016.2 3.1 NE 3.1 0.0 0.0
05:40 8.5 2.9 68 1016.2 2.2 NE 3.1 0.0 0.0
05:41 8.5 2.9 68 1016.1 2.2 NE 3.1 0.0 0.0
05:42 8.5 2.9 68 1016.2 2.2 NE 3.1 0.0 0.0
05:43 8.5 3.1 69 1016.3 3.1 NE 3.1 0.0 0.0
05:44 8.5 3.1 69 1016.1 2.2 NE 3.1 0.0 0.0
05:45 8.5 3.1 69 1016.1 2.2 NE 3.1 0.0 0.0
05:46 8.4 3.0 69 1016.1 1.6 E 3.1 0.0 0.0
05:47 8.4 3.0 69 1016.2 2.2 E 3.1 0.0 0.0
05:48 8.4 3.0 69 1016.1 2.2 N 3.1 0.0 0.0
05:49 8.4 3.0 69 1016.4 2.2 NE 3.1 0.0 0.0
05:50 8.4 3.0 69 1016.1 2.2 NE 3.1 0.0 0.0
05:52 8.4 3.0 69 1016.1 2.2 NE 3.1 0.0 0.0
05:53 8.4 3.0 69 1016.2 2.2 NE 3.1 0.0 0.0
05:54 8.4 3.0 69 1016.0 2.2 N 2.2 0.0 0.0
05:55 8.3 3.0 69 1016.1 1.6 NE 2.2 0.0 0.0
05:56 8.3 3.0 69 1016.1 2.2 NW 2.2 0.0 0.0
05:57 8.3 3.0 69 1016.1 2.2 NE 2.2 0.0 0.0
05:58 8.3 3.0 69 1016.4 2.2 NE 2.2 0.0 0.0
05:59 8.3 3.0 69 1016.1 2.2 E 2.2 0.0 0.0
06:00 8.3 3.0 69 1016.2 2.2 NW 2.2 0.0 0.0
06:01 8.3 3.0 69 1016.3 2.2 NE 2.2 0.0 0.0
06:02 8.3 3.0 69 1016.1 3.1 N 3.1 0.0 0.0
06:03 8.3 3.0 69 1016.0 2.2 NE 3.1 0.0 0.0
06:04 8.3 3.0 69 1016.0 3.1 NNE 3.1 0.0 0.0
06:06 8.3 3.0 69 1016.1 3.1 N 3.1 0.0 0.0
06:07 8.3 3.0 69 1016.1 3.1 N 3.1 0.0 0.0
06:08 8.3 2.7 68 1016.2 3.1 E 3.1 0.0 0.0
06:09 8.3 2.7 68 1016.3 2.2 N 3.1 0.0 0.0
06:10 8.3 2.7 68 1016.3 2.2 N 3.1 0.0 0.0
06:11 8.3 2.7 68 1016.2 2.2 NE 3.1 0.0 0.0
06:12 8.3 2.7 68 1016.3 2.2 NE 3.1 0.0 0.0
06:13 8.3 2.7 68 1016.3 2.2 NE 3.1 0.0 0.0
06:14 8.3 2.7 68 1016.0 2.2 NE 3.1 0.0 0.0
06:15 8.3 2.7 68 1016.3 2.2 NE 3.1 0.0 0.0
06:16 8.3 2.7 68 1016.4 2.2 NE 3.1 0.0 0.0
06:17 8.3 2.7 68 1016.3 3.1 NE 3.1 0.0 0.0
06:18 8.3 2.5 67 1016.1 3.1 NE 3.1 0.0 0.0
06:20 8.3 2.5 67 1016.3 3.1 N 3.1 0.0 0.0
06:21 8.3 2.5 67 1016.3 3.1 E 3.1 0.0 0.0
06:22 8.3 2.5 67 1016.3 2.2 NE 3.1 0.0 0.0
06:23 8.3 2.5 67 1016.4 3.1 N 3.1 0.0 0.0
06:24 8.3 2.5 67 1016.4 3.1 N 3.1 0.0 0.0
06:25 8.3 2.5 67 1016.2 2.2 NE 3.1 0.0 0.0
06:26 8.3 2.5 67 1016.4 3.8 E 3.8 0.0 0.0
06:27 8.3 2.5 67 1016.3 3.8 NE 3.8 0.0 0.0
06:28 8.3 2.5 67 1016.4 3.1 NE 3.8 0.0 0.0
06:29 8.3 2.7 68 1016.5 3.8 NE 3.8 0.0 0.0
06:30 8.3 2.7 68 1016.2 3.1 NE 3.8 0.0 0.0
06:31 8.3 2.7 68 1016.4 3.1 N 3.8 0.0 0.0
06:32 8.3 2.7 68 1016.2 2.2 NE 3.8 0.0 0.0
06:34 8.3 2.7 68 1016.3 3.1 N 3.8 0.0 0.0
06:35 8.3 2.7 68 1016.3 3.1 N 3.8 0.0 0.0
06:36 8.3 2.7 68 1016.5 2.2 NE 3.8 0.0 0.0
06:37 8.3 2.7 68 1016.5 2.2 NE 3.8 0.0 0.0
06:38 8.3 2.7 68 1016.5 2.2 NE 3.8 0.0 0.0
06:39 8.3 2.7 68 1016.2 3.1 NE 3.8 0.0 0.0
06:40 8.3 2.7 68 1016.4 2.2 E 3.8 0.0 0.0
06:41 8.3 2.7 68 1016.3 2.2 NW 3.8 0.0 0.0
06:42 8.3 2.7 68 1016.2 2.2 NE 3.8 0.0 0.0
06:43 8.3 2.7 68 1016.5 2.2 NW 3.1 0.0 0.0
06:44 8.3 2.7 68 1016.2 2.2 NE 3.1 0.0 0.0
06:45 8.3 2.7 68 1016.6 2.2 N 3.1 0.0 0.0
06:46 8.3 2.7 68 1016.4 3.1 E 3.1 0.0 0.0
06:48 8.3 2.7 68 1016.3 3.1 NE 3.1 0.0 0.0
06:49 8.3 2.7 68 1016.4 3.8 NE 3.8 0.0 0.0
06:50 8.3 2.7 68 1016.6 3.8 N 3.8 0.0 0.0
06:51 8.3 2.7 68 1016.5 3.8 N 3.8 0.0 0.0
06:52 8.3 2.7 68 1016.4 3.1 NE 3.8 0.0 0.0
06:53 8.3 2.7 68 1016.5 3.1 NE 3.8 0.0 0.0
06:54 8.3 2.7 68 1016.5 2.2 N 3.8 0.0 0.0
06:55 8.3 2.7 68 1016.4 3.1 NNE 3.8 0.0 0.0
06:56 8.3 2.7 68 1016.5 3.1 NE 3.8 0.0 0.0
06:57 8.3 2.7 68 1016.5 3.1 NE 3.8 0.0 0.0
06:58 8.3 3.0 69 1016.4 2.2 NE 3.8 0.0 0.0
06:59 8.3 3.0 69 1016.6 3.1 N 3.8 0.0 0.0
07:00 8.3 3.0 69 1016.3 3.1 N 3.8 0.0 0.0
07:02 8.3 3.0 69 1016.5 3.1 N 3.1 0.0 0.0
07:03 8.3 3.0 69 1016.5 3.1 N 3.1 0.0 0.0
07:04 8.3 3.0 69 1016.6 3.1 N 3.1 0.0 0.0
07:05 8.3 3.0 69 1016.3 3.1 E 3.1 0.0 0.0
07:06 8.3 3.0 69 1016.6 3.1 E 3.1 0.0 0.0
07:07 8.3 3.0 69 1016.6 4.5 N 4.5 0.0 0.0
07:08 8.3 3.0 69 1016.4 4.5 N 4.5 0.0 0.0
07:09 8.3 3.0 69 1016.5 3.1 E 4.5 0.0 0.0
07:10 8.3 3.0 69 1016.6 3.1 N 4.5 0.0 0.0
07:11 8.3 3.0 69 1016.8 3.1 S 4.5 0.0 0.0
07:12 8.3 3.0 69 1016.6 3.1 S 4.5 0.0 0.0
07:13 8.3 3.0 69 1016.5 3.8 NE 4.5 0.0 0.0
07:14 8.3 3.0 69 1016.6 3.1 NE 4.5 0.0 0.0
07:16 8.3 3.0 69 1016.7 3.1 NE 4.5 0.0 0.0
07:17 8.3 3.0 69 1016.7 3.1 NE 4.5 0.0 0.0
07:18 8.3 3.0 69 1016.6 3.1 NE 4.5 0.0 0.0
07:19 8.4 3.0 69 1016.3 3.1 NNE 3.8 0.0 0.0
07:20 8.4 3.0 69 1016.6 3.1 NNE 3.8 0.0 0.0
07:21 8.4 3.0 69 1016.7 3.1 NE 3.8 0.0 0.0
07:22 8.4 3.0 69 1016.7 3.1 N 3.8 0.0 0.0
07:23 8.4 3.0 69 1016.5 3.1 N 3.8 0.0 0.0
07:24 8.4 3.2 70 1016.7 3.8 NE 3.8 0.0 0.0
07:25 8.4 3.2 70 1016.7 3.1 E 3.8 0.0 0.0
07:26 8.5 3.3 70 1016.6 2.2 E 3.8 0.0 0.0
07:27 8.5 3.3 70 1016.8 3.1 NW 3.8 0.0 0.0
07:28 8.5 3.3 70 1016.6 3.1 NE 3.8 0.0 0.0
07:30 8.6 3.4 70 1016.8 3.1 NNE 3.8 0.0 0.0
07:31 8.6 3.4 70 1016.8 3.1 NNE 3.8 0.0 0.0
07:32 8.6 3.4 70 1016.7 3.1 NE 3.8 0.0 0.0
07:33 8.6 3.4 70 1016.6 3.8 E 3.8 0.0 0.0
07:34 8.6 3.4 70 1016.8 3.8 E 3.8 0.0 0.0
07:35 8.6 3.4 70 1016.6 3.1 NE 3.8 0.0 0.0
07:36 8.7 3.5 70 1016.6 2.2 NE 3.8 0.0 0.0
07:37 8.7 3.5 70 1016.7 2.2 NE 3.8 0.0 0.0
07:38 8.7 3.5 70 1016.8 3.8 N 3.8 0.0 0.0
07:39 8.7 3.5 70 1016.7 3.8 N 3.8 0.0 0.0
07:40 8.7 3.5 70 1016.7 3.8 N 3.8 0.0 0.0
07:41 8.8 3.6 70 1016.6 4.5 N 4.5 0.0 0.0
07:42 8.8 3.6 70 1016.9 3.8 E 4.5 0.0 0.0
07:44 8.8 3.4 69 1016.6 3.1 E 4.5 0.0 0.0
07:45 8.9 3.5 69 1016.6 2.2 NE 4.5 0.0 0.0
07:46 8.9 3.5 69 1016.7 3.1 E 4.5 0.0 0.0
07:47 8.9 3.5 69 1016.9 3.1 E 4.5 0.0 0.0
07:48 8.9 3.5 69 1016.8 3.1 E 4.5 0.0 0.0
07:49 9.0 3.6 69 1016.9 3.1 E 4.5 0.0 0.0
07:50 9.0 3.6 69 1016.8 3.1 E 4.5 0.0 0.0
07:51 9.0 3.6 69 1016.7 2.2 NE 4.5 0.0 0.0
07:52 9.0 3.6 69 1016.7 4.5 N 4.5 0.0 0.0
07:53 9.0 3.6 69 1016.8 4.5 N 4.5 0.0 0.0
07:54 9.1 3.7 69 1016.7 3.8 NE 4.5 0.0 0.0
07:55 9.1 3.7 69 1016.7 3.8 NE 4.5 0.0 0.0
07:56 9.1 3.7 69 1016.7 3.1 N 4.5 0.0 0.0
07:58 9.2 3.8 69 1016.8 4.5 NE 4.5 0.0 0.0
07:59 9.2 3.8 69 1016.8 4.5 NE 4.5 0.0 0.0
08:00 9.2 3.8 69 1016.7 4.5 NE 4.5 0.0 0.0
08:01 9.2 3.8 69 1016.7 4.5 NE 4.5 0.0 0.0
08:02 9.2 3.8 69 1016.8 4.5 NE 4.5 0.0 0.0
08:03 9.2 3.8 69 1016.7 4.5 NE 4.5 0.0 0.0
08:04 9.4 4.0 69 1016.9 3.1 NE 4.5 0.0 0.0
08:05 9.4 4.0 69 1017.0 3.1 E 4.5 0.0 0.0
08:06 9.5 4.1 69 1016.9 3.1 NE 4.5 0.0 0.0
08:07 9.5 4.1 69 1017.0 4.5 N 4.5 0.0 0.0
08:08 9.5 4.1 69 1017.0 2.2 N 4.5 0.0 0.0
08:09 9.5 4.1 69 1016.8 2.2 N 4.5 0.0 0.0
08:10 9.6 4.4 70 1016.7 2.2 N 4.5 0.0 0.0
08:12 9.7 4.5 70 1016.6 3.8 E 4.5 0.0 0.0
08:13 9.7 4.5 70 1016.8 6.0 NE 6.0 0.0 0.0
08:14 9.8 4.6 70 1017.0 5.4 NE 6.0 0.0 0.0
08:15 9.8 4.6 70 1016.8 5.4 NE 6.0 0.0 0.0
08:16 9.9 4.5 69 1016.9 3.8 E 6.0 0.0 0.0
08:17 9.9 4.5 69 1017.0 3.1 E 6.0 0.0 0.0
08:18 10.0 4.6 69 1017.0 2.2 NE 6.0 0.0 0.0
08:19 10.0 4.6 69 1016.8 2.2 NE 6.0 0.0 0.0
08:20 10.0 4.6 69 1016.9 2.2 NE 6.0 0.0 0.0
08:21 10.0 4.6 69 1016.8 2.2 NE 6.0 0.0 0.0
08:22 10.1 4.7 69 1016.9 3.8 N 6.0 0.0 0.0
08:23 10.1 4.7 69 1016.8 3.8 N 5.4 0.0 0.0
08:24 10.1 4.7 69 1016.9 3.8 N 5.4 0.0 0.0
08:26 10.3 4.9 69 1016.9 3.1 NE 3.8 0.0 0.0
08:27 10.3 4.9 69 1016.9 3.1 NE 3.8 0.0 0.0
08:28 10.4 5.0 69 1017.0 3.8 NE 3.8 0.0 0.0
08:29 10.4 5.0 69 1016.9 3.8 NE 3.8 0.0 0.0
08:30 10.4 5.0 69 1017.0 3.8 NE 3.8 0.0 0.0
08:31 10.4 5.0 69 1017.0 3.8 NE 3.8 0.0 0.0
08:32 10.5 4.6 67 1017.0 4.5 NE 4.5 0.0 0.0
08:33 10.5 4.6 67 1017.1 6.0 N 6.0 0.0 0.0
08:34 10.6 4.5 66 1016.8 3.1 E 6.0 0.0 0.0
08:35 10.6 4.5 66 1017.0 3.1 NE 6.0 0.0 0.0
08:36 10.6 4.5 66 1017.0 4.5 WNW 6.0 0.0 0.0
08:37 10.6 4.5 66 1016.9 3.8 NE 6.0 0.0 0.0
08:38 10.7 4.4 65 1017.1 6.0 N 6.0 0.0 0.0
08:40 10.8 4.5 65 1017.1 3.1 NE 6.0 0.0 0.0
08:41 10.8 4.5 65 1017.2 2.2 W 6.0 0.0 0.0
08:42 10.8 4.5 65 1017.2 2.2 E 6.0 0.0 0.0
08:43 10.8 4.5 65 1017.2 4.5 SW 6.0 0.0 0.0
08:44 10.9 4.6 65 1017.0 3.8 N 6.0 0.0 0.0
08:45 10.9 4.6 65 1017.1 6.9 NE 6.9 0.0 0.0
08:46 10.9 4.6 65 1017.1 6.9 N 6.9 0.0 0.0
08:47 11.0 4.7 65 1016.9 6.0 NE 6.9 0.0 0.0
08:48 11.0 4.9 66 1017.1 8.3 N 8.3 0.0 0.0
08:49 11.0 4.9 66 1017.0 8.3 NW 8.3 0.0 0.0
08:50 11.1 5.0 66 1017.1 3.1 E 8.3 0.0 0.0
08:51 11.1 5.0 66 1017.0 8.3 NE 8.3 0.0 0.0
08:52 11.2 5.1 66 1016.9 4.5 SE 8.3 0.0 0.0
08:54 11.2 5.3 67 1017.0 5.4 NE 8.3 0.0 0.0
08:55 11.2 5.3 67 1017.0 5.4 NE 8.3 0.0 0.0
08:56 11.2 5.3 67 1017.1 6.9 NE 8.3 0.0 0.0
08:57 11.3 5.4 67 1017.1 3.1 SE 8.3 0.0 0.0
08:58 11.3 5.4 67 1017.0 7.6 NE 8.3 0.0 0.0
08:59 11.3 5.4 67 1017.1 6.0 NE 8.3 0.0 0.0
09:00 11.3 5.4 67 1017.0 4.5 NE 8.3 0.0 0.0
09:01 11.3 5.4 67 1017.0 4.5 NE 8.3 0.0 0.0
09:02 11.3 5.4 67 1016.9 4.5 NE 7.6 0.0 0.0
09:03 11.3 5.4 67 1017.2 4.5 NE 7.6 0.0 0.0
09:04 11.3 5.4 67 1016.9 4.5 NE 7.6 0.0 0.0
09:05 11.3 5.4 67 1017.1 4.5 NE 7.6 0.0 0.0
09:06 11.5 6.0 69 1017.3 4.5 E 7.6 0.0 0.0
09:07 11.5 6.0 69 1017.1 4.5 NW 7.6 0.0 0.0
09:09 11.6 6.1 69 1017.0 4.5 N 6.0 0.0 0.0
09:10 11.6 6.1 69 1017.1 3.1 NE 4.5 0.0 0.0
09:11 11.6 6.1 69 1017.0 6.9 NW 6.9 0.0 0.0
09:12 11.7 6.2 69 1017.0 4.5 E 6.9 0.0 0.0
09:13 11.7 6.2 69 1017.3 8.3 NW 8.3 0.0 0.0
09:14 11.8 6.3 69 1017.2 3.8 NE 8.3 0.0 0.0
09:15 11.8 6.3 69 1017.2 3.8 NE 8.3 0.0 0.0
09:16 11.8 6.5 70 1017.1 5.4 W 8.3 0.0 0.0
09:17 11.9 6.6 70 1017.2 5.4 NW 8.3 0.0 0.0
09:18 11.9 6.6 70 1017.1 3.8 SE 8.3 0.0 0.0
09:19 11.9 6.6 70 1017.3 3.8 N 8.3 0.0 0.0
09:20 12.0 6.7 70 1017.0 6.0 E 8.3 0.0 0.0
09:21 12.0 6.7 70 1017.2 6.0 NE 8.3 0.0 0.0
09:22 12.1 6.6 69 1017.1 6.9 NW 8.3 0.0 0.0
09:23 12.1 6.6 69 1017.2 6.9 NW 8.3 0.0 0.0
09:24 12.1 6.6 69 1017.2 3.8 N 8.3 0.0 0.0
09:25 12.1 6.6 69 1017.2 5.4 SE 8.3 0.0 0.0
09:27 12.2 6.7 69 1017.2 3.8 N 8.3 0.0 0.0
09:28 12.2 6.7 69 1017.3 3.8 S 9.2 0.0 0.0
09:29 12.2 6.7 69 1017.3 3.8 N 9.2 0.0 0.0
09:30 12.3 6.8 69 1017.2 2.2 N 9.2 0.0 0.0
09:31 12.3 6.8 69 1017.1 2.2 SW 9.2 0.0 0.0
09:32 12.4 6.9 69 1017.2 4.5 N 9.2 0.0 0.0
09:33 12.4 6.9 69 1017.4 4.5 SW 9.2 0.0 0.0
09:34 12.4 6.9 69 1017.3 4.5 SW 9.2 0.0 0.0
09:35 12.5 6.3 66 1017.3 3.1 N 9.2 0.0 0.0
09:36 12.5 6.3 66 1017.3 4.5 NE 9.2 0.0 0.0
09:37 12.6 6.2 65 1017.2 3.1 N 9.2 0.0 0.0
09:38 12.6 6.2 65 1017.1 4.5 NW 6.9 0.0 0.0
09:39 12.6 6.2 65 1017.5 5.4 E 6.9 0.0 0.0
09:40 12.6 6.2 65 1017.1 6.9 NE 6.9 0.0 0.0
09:42 12.7 6.1 64 1017.2 6.0 W 6.9 0.0 0.0
09:43 12.7 6.1 64 1017.2 6.0 W 6.9 0.0 0.0
09:44 12.8 6.2 64 1017.3 6.0 E 6.9 0.0 0.0
09:45 12.8 6.2 64 1017.2 5.4 NW 6.9 0.0 0.0
09:46 12.8 5.9 63 1017.3 5.4 NE 6.9 0.0 0.0
09:47 12.8 5.9 63 1017.3 2.2 E 6.9 0.0 0.0
09:48 12.8 5.9 63 1017.2 5.4 E 6.9 0.0 0.0
09:49 12.8 5.9 63 1017.3 6.9 SW 6.9 0.0 0.0
09:50 12.8 5.9 63 1017.3 7.6 N 7.6 0.0 0.0
09:51 12.9 6.0 63 1017.2 6.9 NE 7.6 0.0 0.0
09:52 12.9 6.0 63 1017.3 6.9 NE 7.6 0.0 0.0
09:53 12.9 6.0 63 1017.4 4.5 S 7.6 0.0 0.0
09:54 12.9 6.0 63 1017.4 6.9 E 7.6 0.0 0.0
09:55 13.0 6.1 63 1017.4 5.4 N 7.6 0.0 0.0
09:56 13.0 6.1 63 1017.4 4.5 NE 7.6 0.0 0.0
09:57 13.0 6.1 63 1017.2 5.4 W 7.6 0.0 0.0
09:59 13.0 5.9 62 1017.4 4.5 N 7.6 0.0 0.0
10:00 13.1 6.0 62 1017.6 2.2 W 7.6 0.0 0.0
10:01 13.1 6.2 63 1017.5 7.6 N 7.6 0.0 0.0
10:02 13.1 6.0 62 1017.4 6.0 NW 7.6 0.0 0.0
10:03 13.1 6.0 62 1017.5 5.4 NW 7.6 0.0 0.0
10:04 13.1 6.0 62 1017.7 8.3 NE 8.3 0.0 0.0
10:05 13.1 6.0 62 1017.5 6.0 NE 8.3 0.0 0.0
10:06 13.1 6.0 62 1017.6 3.1 SW 8.3 0.0 0.0
10:07 13.1 5.8 61 1017.4 3.8 NW 8.3 0.0 0.0
10:08 13.1 5.8 61 1017.4 5.4 NE 8.3 0.0 0.0
10:09 13.1 6.0 62 1017.5 3.8 S 8.3 0.0 0.0
10:10 13.1 5.8 61 1017.4 3.1 NE 8.3 0.0 0.0
10:11 13.1 5.8 61 1017.4 4.5 N 8.3 0.0 0.0
10:12 13.1 5.8 61 1017.5 5.4 NW 8.3 0.0 0.0
10:13 13.1 5.8 61 1017.5 5.4 NW 8.3 0.0 0.0
10:15 13.1 5.8 61 1017.5 3.8 N 6.0 0.0 0.0
10:16 13.1 6.0 62 1017.6 5.4 NE 6.0 0.0 0.0
10:17 13.1 6.0 62 1017.4 6.9 E 6.9 0.0 0.0
10:18 13.1 6.0 62 1017.5 4.5 NE 6.9 0.0 0.0
10:19 13.1 5.8 61 1017.5 9.2 N 9.2 0.0 0.0
10:20 13.1 5.8 61 1017.3 8.3 E 9.2 0.0 0.0
10:21 13.1 5.8 61 1017.5 5.4 NW 9.2 0.0 0.0
10:22 13.1 5.8 61 1017.5 4.5 SW 9.2 0.0 0.0
10:23 13.0 5.7 61 1017.6 3.8 NE 9.2 0.0 0.0
10:24 13.0 5.7 61 1017.6 4.5 NE 9.2 0.0 0.0
10:25 13.0 5.7 61 1017.7 4.5 N 9.2 0.0 0.0
10:26 13.0 5.7 61 1017.4 8.3 NE 9.2 0.0 0.0
10:27 13.0 5.7 61 1017.5 8.3 NE 9.2 0.0 0.0
10:28 13.0 5.4 60 1017.5 3.8 NE 9.2 0.0 0.0
10:29 13.0 5.4 60 1017.5 3.1 SE 9.2 0.0 0.0
10:31 12.9 5.3 60 1017.6 4.5 W 8.3 0.0 0.0
10:32 12.9 5.6 61 1017.5 3.8 E 8.3 0.0 0.0
10:33 12.9 5.6 61 1017.5 2.2 S 8.3 0.0 0.0
10:34 12.9 5.6 61 1017.5 3.8 E 8.3 0.0 0.0
10:35 12.9 5.6 61 1017.4 7.6 N 8.3 0.0 0.0
10:36 12.9 5.6 61 1017.5 4.5 W 8.3 0.0 0.0
10:37 12.9 5.6 61 1017.4 4.5 N 8.3 0.0 0.0
10:38 12.9 5.6 61 1017.6 6.0 SW 7.6 0.0 0.0
10:39 12.9 5.6 61 1017.7 5.4 NE 7.6 0.0 0.0
10:40 12.9 5.6 61 1017.5 3.8 N 7.6 0.0 0.0
10:41 12.9 5.6 61 1017.6 6.9 NE 7.6 0.0 0.0
10:42 12.9 5.6 61 1017.7 7.6 N 7.6 0.0 0.0
10:44 12.9 5.3 60 1017.6 3.8 NE 7.6 0.0 0.0
10:45 12.9 5.6 61 1017.8 3.8 NE 7.6 0.0 0.0
10:46 12.9 5.6 61 1017.6 5.4 NW 7.6 0.0 0.0
10:47 13.0 5.7 61 1017.7 6.0 SE 7.6 0.0 0.0
10:48 13.0 5.7 61 1017.7 9.2 NE 9.2 0.0 0.0
10:49 13.0 5.7 61 1017.6 6.9 SE 9.2 0.0 0.0
10:50 13.0 5.7 61 1017.7 6.0 NW 9.2 0.0 0.0
10:51 13.0 5.7 61 1017.8 9.2 E 9.2 0.0 0.0
10:52 13.0 5.7 61 1017.5 9.2 E 9.2 0.0 0.0
10:53 13.0 5.7 61 1017.7 9.2 E 9.2 0.0 0.0
10:54 13.0 5.7 61 1017.7 6.0 N 9.2 0.0 0.0
10:55 13.0 5.7 61 1017.6 4.5 N 9.2 0.0 0.0
10:56 13.0 5.9 62 1017.9 5.4 NE 9.2 0.0 0.0
10:57 13.1 5.8 61 1017.4 6.9 W 9.2 0.0 0.0
10:59 13.1 5.8 61 1017.9 8.3 E 9.2 0.0 0.0
11:00 13.1 5.8 61 1017.7 8.3 E 9.2 0.0 0.0
11:01 13.1 5.8 61 1017.6 8.3 E 9.2 0.0 0.0
11:02 13.1 5.8 61 1017.7 8.3 E 9.2 0.0 0.0
11:03 13.1 5.8 61 1017.6 6.9 NE 9.2 0.0 0.0
11:04 13.2 5.6 60 1017.8 6.9 E 8.3 0.0 0.0
11:05 13.2 5.8 61 1017.6 5.4 E 8.3 0.0 0.0
11:06 13.3 5.9 61 1017.6 4.5 NW 8.3 0.0 0.0
11:07 13.3 5.7 60 1017.7 4.5 E 8.3 0.0 0.0
11:08 13.4 5.8 60 1018.0 8.3 NE 8.3 0.0 0.0
11:09 13.4 5.8 60 1017.6 6.0 N 8.3 0.0 0.0
11:10 13.4 5.6 59 1017.8 6.0 E 8.3 0.0 0.0
11:11 13.4 5.6 59 1017.8 4.5 NW 8.3 0.0 0.0
11:12 13.4 5.6 59 1017.8 4.5 NE 8.3 0.0 0.0
11:13 13.5 5.9 60 1017.8 7.6 ESE 8.3 0.0 0.0
11:14 13.5 5.9 60 1017.6 3.8 NNW 8.3 0.0 0.0
11:15 13.6 6.0 60 1017.6 3.1 E 8.3 0.0 0.0
11:16 13.6 6.0 60 1017.7 3.8 NE 8.3 0.0 0.0
11:17 13.7 6.1 60 1017.7 5.4 NW 8.3 0.0 0.0
11:18 13.7 6.1 60 1017.6 8.3 E 8.3 0.0 0.0
11:20 13.8 6.2 60 1017.6 7.6 NE 8.3 0.0 0.0
11:21 13.8 6.2 60 1017.5 5.4 NW 8.3 0.0 0.0
11:22 13.9 6.3 60 1017.8 6.0 NE 8.3 0.0 0.0
11:23 13.9 6.3 60 1017.9 8.3 NE 8.3 0.0 0.0
11:24 14.0 6.1 59 1017.7 5.4 NE 8.3 0.0 0.0
11:25 14.0 6.4 60 1017.6 4.5 NE 8.3 0.0 0.0
11:26 14.1 6.5 60 1017.6 6.9 E 8.3 0.0 0.0
11:27 14.1 6.2 59 1017.8 10.7 NE 10.7 0.0 0.0
11:28 14.1 6.2 59 1017.7 8.3 NE 10.7 0.0 0.0
11:29 14.1 6.2 59 1017.6 8.3 NE 10.7 0.0 0.0
11:30 14.1 6.2 59 1017.6 7.6 NE 10.7 0.0 0.0
11:31 14.1 6.2 59 1017.7 7.6 N 10.7 0.0 0.0
11:32 14.2 6.6 60 1017.9 5.4 E 10.7 0.0 0.0
11:33 14.2 6.6 60 1017.9 5.4 NW 10.7 0.0 0.0
11:34 14.3 6.6 60 1017.8 6.9 NE 10.7 0.0 0.0
11:35 14.4 6.5 59 1017.8 3.8 SW 10.7 0.0 0.0
11:36 14.5 6.8 60 1017.8 5.4 N 10.7 0.0 0.0
11:38 14.5 6.6 59 1017.8 6.0 NE 8.3 0.0 0.0
11:39 14.5 6.6 59 1017.8 6.0 NE 8.3 0.0 0.0
11:40 14.5 6.6 59 1017.8 7.6 SSE 8.3 0.0 0.0
11:41 14.5 6.6 59 1017.7 7.6 NW 7.6 0.0 0.0
11:42 14.5 6.3 58 1018.1 5.4 NE 7.6 0.0 0.0
11:43 14.5 6.3 58 1017.9 7.6 SW 7.6 0.0 0.0
11:44 14.4 6.0 57 1017.8 9.8 NE 9.8 0.0 0.0
11:45 14.4 6.0 57 1017.8 9.8 NW 9.8 0.0 0.0
11:46 14.4 6.0 57 1017.8 4.5 N 9.8 0.0 0.0
11:47 14.3 6.2 58 1017.8 3.1 S 9.8 0.0 0.0
11:48 14.3 6.4 59 1017.8 4.5 SE 9.8 0.0 0.0
11:49 14.3 6.4 59 1017.9 6.9 SE 9.8 0.0 0.0
11:50 14.3 6.4 59 1017.9 5.4 W 9.8 0.0 0.0
11:51 14.3 6.4 59 1018.0 7.6 N 9.8 0.0 0.0
11:52 14.2 6.3 59 1017.8 6.0 NE 9.8 0.0 0.0
11:53 14.2 6.3 59 1017.8 7.6 NW 9.8 0.0 0.0
11:55 14.3 6.6 60 1018.0 5.4 NE 7.6 0.0 0.0
11:56 14.4 6.7 60 1018.1 6.0 ENE 7.6 0.0 0.0
11:57 14.4 6.7 60 1018.1 7.6 NE 7.6 0.0 0.0
11:58 14.4 6.7 60 1018.0 7.6 NE 7.6 0.0 0.0
11:59 14.4 6.7 60 1018.0 6.9 NE 7.6 0.0 0.0
12:00 14.4 6.5 59 1018.0 8.3 E 8.3 0.0 0.0
12:01 14.4 6.5 59 1017.8 8.3 E 8.3 0.0 0.0
12:02 14.4 6.5 59 1018.0 8.3 E 8.3 0.0 0.0
12:03 14.3 6.4 59 1018.0 9.8 NE 12.1 0.0 0.0
12:04 14.3 6.4 59 1018.0 9.8 NE 12.1 0.0 0.0
12:05 14.3 6.4 59 1018.0 8.3 NW 12.1 0.0 0.0
12:06 14.3 6.4 59 1018.1 6.0 E 12.1 0.0 0.0
12:07 14.2 6.3 59 1017.7 5.4 NE 12.1 0.0 0.0
12:09 14.3 6.6 60 1017.9 4.5 NE 12.1 0.0 0.0
12:10 14.3 6.6 60 1018.0 3.8 NE 12.1 0.0 0.0
12:11 14.4 6.7 60 1017.9 6.0 E 12.1 0.0 0.0
12:12 14.5 6.6 59 1017.9 6.9 NE 12.1 0.0 0.0
12:13 14.5 6.6 59 1018.0 9.8 NE 10.7 0.0 0.0
12:14 14.5 6.3 58 1017.9 9.8 NE 10.7 0.0 0.0
12:15 14.4 6.2 58 1018.0 12.1 E 12.1 0.0 0.0
12:16 14.4 6.0 57 1017.9 9.2 NNE 12.1 0.0 0.0
12:17 14.4 6.0 57 1017.7 9.2 NE 12.1 0.0 0.0
12:18 14.5 6.1 57 1017.9 9.2 S 12.1 0.0 0.0
12:19 14.4 6.0 57 1018.0 7.6 NE 12.1 0.0 0.0
12:20 14.5 6.1 57 1018.1 6.9 E 12.1 0.0 0.0
12:21 14.5 6.1 57 1018.1 8.3 E 12.1 0.0 0.0
12:22 14.5 6.1 57 1017.9 9.8 N 12.1 0.0 0.0
12:24 14.4 6.0 57 1017.9 10.7 E 12.1 0.0 0.0
12:25 14.4 6.0 57 1017.8 8.3 E 10.7 0.0 0.0
12:26 14.4 6.0 57 1018.0 8.3 E 10.7 0.0 0.0
12:27 14.4 6.0 57 1018.0 7.6 E 10.7 0.0 0.0
12:28 14.4 6.0 57 1017.9 7.6 E 10.7 0.0 0.0
12:29 14.5 6.1 57 1018.1 9.8 NE 10.7 0.0 0.0
12:30 14.5 6.1 57 1017.7 6.9 E 10.7 0.0 0.0
12:31 14.5 6.3 58 1017.8 13.6 N 13.6 0.0 0.0
12:32 14.6 6.7 59 1018.0 6.9 W 13.6 0.0 0.0
12:33 14.6 6.7 59 1018.1 5.4 ESE 13.6 0.0 0.0
12:34 14.7 6.8 59 1018.0 7.6 SE 13.6 0.0 0.0
12:35 14.7 6.8 59 1018.0 8.3 SW 13.6 0.0 0.0
12:36 14.8 6.6 58 1018.1 8.3 N 13.6 0.0 0.0
12:37 14.9 6.7 58 1017.9 11.4 NE 13.6 0.0 0.0
12:38 15.2 6.7 57 1018.0 12.1 NE 13.6 0.0 0.0
12:40 15.4 7.4 59 1017.8 12.1 E 13.6 0.0 0.0
12:41 15.5 7.5 59 1017.9 8.3 NE 12.1 0.0 0.0
12:42 15.7 7.5 58 1018.0 13.6 E 13.6 0.0 0.0
12:43 15.8 7.8 59 1018.1 12.1 NE 13.6 0.0 0.0
12:44 15.9 7.9 59 1018.0 5.4 E 13.6 0.0 0.0
12:45 16.1 7.6 57 1018.0 10.7 NE 13.6 0.0 0.0
12:46 16.1 7.3 56 1017.9 7.6 E 13.6 0.0 0.0
12:47 16.1 7.3 56 1018.0 8.3 NE 13.6 0.0 0.0
12:48 16.2 7.2 55 1018.0 9.2 NE 13.6 0.0 0.0
12:49 16.1 7.1 55 1017.8 7.6 E 13.6 0.0 0.0
12:50 16.1 7.1 55 1018.0 9.2 NE 13.6 0.0 0.0
12:51 16.0 7.0 55 1017.9 12.1 NE 13.6 0.0 0.0
12:52 16.0 7.0 55 1018.0 12.1 NE 12.1 0.0 0.0
12:53 16.0 7.2 56 1018.1 12.1 NE 12.1 0.0 0.0
12:54 16.0 7.2 56 1018.0 13.0 NE 13.0 0.0 0.0
12:55 16.0 7.2 56 1018.0 13.6 NE 13.6 0.0 0.0
12:56 16.0 7.0 55 1017.9 11.4 SE 13.6 0.0 0.0
12:58 15.9 7.4 57 1017.9 12.1 SW 13.6 0.0 0.0
12:59 15.9 7.4 57 1017.9 12.1 SW 13.6 0.0 0.0
13:00 15.9 7.4 57 1018.1 8.3 SW 13.6 0.0 0.0
13:01 15.9 7.4 57 1018.0 8.3 SW 13.6 0.0 0.0
13:02 15.9 7.4 57 1017.9 8.3 SW 13.6 0.0 0.0
13:03 15.9 7.4 57 1018.0 8.3 SW 13.6 0.0 0.0
13:04 15.9 7.4 57 1018.0 8.3 SW 13.6 0.0 0.0
13:05 15.8 7.3 57 1018.0 12.1 S 13.6 0.0 0.0
13:06 15.8 7.6 58 1018.0 9.8 E 12.1 0.0 0.0
13:07 15.7 7.5 58 1018.0 8.3 E 12.1 0.0 0.0
13:08 15.7 7.7 59 1018.0 13.0 NE 13.0 0.0 0.0
13:09 15.7 7.5 58 1018.0 11.4 E 13.0 0.0 0.0
13:10 15.7 7.5 58 1018.0 6.9 S 13.0 0.0 0.0
13:11 15.7 7.7 59 1018.0 5.4 N 13.0 0.0 0.0
13:12 15.7 7.7 59 1018.0 8.3 NE 13.0 0.0 0.0
13:13 15.8 7.8 59 1017.9 6.9 E 13.0 0.0 0.0
13:14 15.7 7.7 59 1018.0 10.7 W 13.0 0.0 0.0
13:15 15.7 7.7 59 1018.2 9.2 S 13.0 0.0 0.0
13:16 15.6 7.6 59 1018.0 8.3 NW 13.0 0.0 0.0
13:17 15.5 7.5 59 1017.9 8.3 NE 13.0 0.0 0.0
13:18 15.5 7.5 59 1018.0 6.9 NE 11.4 0.0 0.0
13:21 15.4 7.7 60 1018.0 8.3 NW 10.7 0.0 0.0
13:22 15.4 7.7 60 1017.9 9.2 E 10.7 0.0 0.0
13:23 15.4 7.7 60 1018.0 9.2 NE 10.7 0.0 0.0
13:24 15.4 7.7 60 1018.1 10.7 NE 10.7 0.0 0.0
13:25 15.3 7.6 60 1018.1 10.7 S 10.7 0.0 0.0
13:26 15.2 7.5 60 1017.9 10.7 NE 10.7 0.0 0.0
13:27 15.2 7.5 60 1018.1 7.6 N 10.7 0.0 0.0
13:28 15.1 7.4 60 1018.0 9.8 N 10.7 0.0 0.0
13:29 15.1 7.6 61 1018.1 9.2 NE 10.7 0.0 0.0
13:30 15.1 7.6 61 1018.0 9.2 NE 10.7 0.0 0.0
13:31 15.1 7.6 61 1018.2 9.2 NE 13.6 0.0 0.0
13:32 15.1 7.6 61 1018.1 9.2 NE 13.6 0.0 0.0
13:33 15.1 7.6 61 1018.1 7.6 SW 13.6 0.0 0.0
13:34 15.0 7.5 61 1018.0 6.0 N 13.6 0.0 0.0
13:35 15.0 7.8 62 1018.2 6.0 NE 13.6 0.0 0.0
13:36 15.1 7.9 62 1018.0 4.5 NW 13.6 0.0 0.0
13:37 15.1 7.9 62 1018.0 5.4 NW 13.6 0.0 0.0
13:38 15.1 7.9 62 1017.9 6.9 N 13.6 0.0 0.0
13:39 15.1 7.9 62 1018.0 6.9 E 13.6 0.0 0.0
13:41 15.2 8.0 62 1018.1 9.8 E 9.8 0.0 0.0
13:42 15.2 8.0 62 1018.0 9.8 NE 9.8 0.0 0.0
13:43 15.2 8.0 62 1017.8 8.3 NW 9.8 0.0 0.0
13:44 15.2 8.0 62 1018.1 9.8 N 9.8 0.0 0.0
13:45 15.2 8.0 62 1018.1 6.0 NE 9.8 0.0 0.0
13:46 15.2 8.0 62 1017.9 9.8 N 9.8 0.0 0.0
13:47 15.1 7.9 62 1018.2 9.8 SW 9.8 0.0 0.0
13:48 15.1 7.9 62 1018.1 9.2 N 9.8 0.0 0.0
13:49 15.1 7.9 62 1018.1 7.6 W 9.8 0.0 0.0
13:50 15.1 7.9 62 1017.9 5.4 NE 9.8 0.0 0.0
13:51 15.1 7.9 62 1017.9 5.4 SE 9.8 0.0 0.0
13:52 15.0 7.8 62 1018.2 6.9 NW 9.8 0.0 0.0
13:53 15.0 7.5 61 1018.3 8.3 SW 9.8 0.0 0.0
13:54 14.9 7.7 62 1018.1 6.0 N 9.8 0.0 0.0
13:55 14.9 7.7 62 1017.9 7.6 W 9.8 0.0 0.0
13:56 14.9 7.7 62 1018.1 8.3 NW 9.8 0.0 0.0
13:57 14.9 7.7 62 1018.1 6.9 E 9.2 0.0 0.0
13:58 14.9 7.9 63 1018.0 4.5 N 9.2 0.0 0.0
13:59 14.9 7.7 62 1018.1 6.9 NE 8.3 0.0 0.0
14:00 14.9 7.7 62 1018.0 6.9 SW 8.3 0.0 0.0
14:01 14.9 7.7 62 1018.0 6.9 SW 8.3 0.0 0.0
14:02 14.9 7.7 62 1018.1 6.9 SW 8.3 0.0 0.0
14:03 15.1 7.6 61 1018.2 9.8 E 9.8 0.0 0.0
14:04 15.1 7.6 61 1018.0 7.6 E 9.8 0.0 0.0
14:05 15.2 7.5 60 1018.1 13.0 N 13.0 0.0 0.0
14:06 15.2 7.7 61 1018.2 6.0 NE 13.0 0.0 0.0
14:07 15.2 7.5 60 1017.8 11.4 N 13.0 0.0 0.0
14:08 15.2 7.5 60 1018.1 7.6 NE 13.0 0.0 0.0
14:09 15.2 7.5 60 1018.1 11.4 NE 13.0 0.0 0.0
14:10 15.3 7.8 61 1018.2 8.3 SW 13.0 0.0 0.0
14:11 15.4 7.9 61 1017.9 6.9 SW 13.0 0.0 0.0
14:12 15.4 7.9 61 1018.0 6.0 E 13.0 0.0 0.0
14:13 15.4 7.7 60 1017.9 6.9 SE 13.0 0.0 0.0
14:14 15.3 7.6 60 1017.9 6.0 SE 13.0 0.0 0.0
14:15 15.3 7.8 61 1018.1 7.6 NE 11.4 0.0 0.0
14:16 15.3 7.6 60 1017.9 12.1 SW 12.1 0.0 0.0
14:17 15.3 7.8 61 1017.9 7.6 SE 12.1 0.0 0.0
14:18 15.3 7.8 61 1018.0 4.5 S 12.1 0.0 0.0
14:19 15.3 7.8 61 1018.1 8.3 N 12.1 0.0 0.0
14:21 15.4 7.9 61 1017.7 13.0 E 13.0 0.0 0.0
14:22 15.4 7.7 60 1018.1 10.7 E 13.0 0.0 0.0
14:23 15.4 7.7 60 1018.0 7.6 N 13.0 0.0 0.0
14:24 15.5 8.0 61 1017.9 5.4 E 13.0 0.0 0.0
14:25 15.5 7.8 60 1017.9 6.9 SW 13.0 0.0 0.0
14:26 15.5 7.8 60 1018.0 6.0 NE 13.0 0.0 0.0
14:27 15.5 7.8 60 1018.0 5.4 E 13.0 0.0 0.0
14:28 15.5 7.8 60 1018.0 6.9 S 13.0 0.0 0.0
14:29 15.5 7.8 60 1018.0 9.8 SE 13.0 0.0 0.0
14:30 15.5 7.8 60 1018.0 6.9 W 13.0 0.0 0.0
14:31 15.5 7.8 60 1017.9 5.4 N 13.0 0.0 0.0
14:32 15.5 7.8 60 1017.8 3.8 NE 12.1 0.0 0.0
14:33 15.4 7.7 60 1018.0 10.7 SW 12.1 0.0 0.0
14:34 15.4 7.7 60 1017.9 9.8 NW 12.1 0.0 0.0
14:35 15.4 7.7 60 1017.9 6.9 NE 12.1 0.0 0.0
14:36 15.3 7.6 60 1017.8 4.5 E 12.1 0.0 0.0
14:37 15.4 7.7 60 1018.0 12.1 E 12.1 0.0 0.0
14:38 15.4 7.7 60 1017.8 12.1 NE 12.1 0.0 0.0
14:39 15.4 7.7 60 1017.9 11.4 N 12.1 0.0 0.0
14:40 15.5 7.8 60 1017.7 6.9 N 12.1 0.0 0.0
14:41 15.6 7.9 60 1018.1 6.0 N 12.1 0.0 0.0
14:42 15.6 7.9 60 1018.0 5.4 NW 12.1 0.0 0.0
14:43 15.8 8.1 60 1018.0 6.9 NW 12.1 0.0 0.0
14:44 16.0 8.2 60 1018.1 5.4 E 12.1 0.0 0.0
14:45 16.1 8.1 59 1018.0 8.3 SE 12.1 0.0 0.0
14:46 16.2 8.2 59 1017.9 9.2 NW 12.1 0.0 0.0
14:47 16.2 8.2 59 1017.9 9.8 N 12.1 0.0 0.0
14:48 16.2 7.9 58 1018.0 6.0 N 11.4 0.0 0.0
14:49 16.3 8.0 58 1017.8 6.9 NW 9.8 0.0 0.0
14:50 16.4 8.1 58 1018.0 7.6 NW 9.8 0.0 0.0
14:51 16.5 8.2 58 1018.2 10.7 E 10.7 0.0 0.0
14:52 16.5 8.2 58 1018.1 10.7 NE 10.7 0.0 0.0
14:53 16.6 8.3 58 1017.9 7.6 NW 10.7 0.0 0.0
14:55 16.7 7.9 56 1017.9 11.4 W 11.4 0.0 0.0
14:56 16.8 8.2 57 1017.8 8.3 NE 11.4 0.0 0.0
14:57 16.8 8.0 56 1017.9 8.3 NE 11.4 0.0 0.0
14:58 16.8 8.0 56 1018.1 7.6 N 11.4 0.0 0.0
14:59 16.9 8.1 56 1017.9 7.6 N 11.4 0.0 0.0
15:00 16.9 8.3 57 1018.1 6.9 NE 11.4 0.0 0.0
15:01 16.9 8.3 57 1018.0 6.9 NE 11.4 0.0 0.0
15:02 16.9 8.3 57 1018.0 6.9 NE 11.4 0.0 0.0
15:03 16.9 8.3 57 1018.0 6.9 NE 11.4 0.0 0.0
15:04 16.9 8.3 57 1018.1 6.9 NE 11.4 0.0 0.0
15:05 17.1 8.8 58 1018.0 7.6 E 9.8 0.0 0.0
15:06 17.1 8.5 57 1017.9 9.2 NE 9.2 0.0 0.0
15:07 17.1 8.3 56 1018.1 13.0 NE 13.0 0.0 0.0
15:08 17.0 7.9 55 1017.9 6.0 N 13.0 0.0 0.0
15:09 16.9 7.8 55 1018.1 13.6 E 13.6 0.0 0.0
15:10 16.9 7.8 55 1018.0 6.0 E 13.6 0.0 0.0
15:11 16.9 7.8 55 1018.2 6.0 E 13.6 0.0 0.0
15:12 16.8 7.4 54 1018.0 10.7 NE 13.6 0.0 0.0
15:13 16.8 7.4 54 1018.0 7.6 NE 13.6 0.0 0.0
15:15 16.6 7.3 54 1017.9 13.6 W 14.5 0.0 0.0
15:16 16.4 6.8 53 1018.2 15.2 E 15.2 0.0 0.0
15:17 16.4 7.3 55 1017.9 9.8 NE 15.2 0.0 0.0
15:18 16.4 7.3 55 1017.9 9.2 E 15.2 0.0 0.0
15:19 16.4 7.3 55 1017.8 15.2 NW 15.2 0.0 0.0
15:20 16.4 7.3 55 1018.1 11.4 NE 15.2 0.0 0.0
15:21 16.4 7.1 54 1017.9 15.9 NE 15.9 0.0 0.0
15:22 16.3 7.0 54 1017.9 21.3 N 21.3 0.0 0.0
15:23 16.2 6.9 54 1017.9 11.4 NE 21.3 0.0 0.0
15:24 16.2 6.9 54 1017.9 18.3 NE 21.3 0.0 0.0
15:25 16.2 6.9 54 1018.1 18.3 NE 21.3 0.0 0.0
15:26 16.0 7.0 55 1018.2 13.6 NE 21.3 0.0 0.0
15:28 16.0 7.0 55 1018.0 12.1 E 21.3 0.0 0.0
15:29 15.8 6.8 55 1018.1 10.7 NNW 21.3 0.0 0.0
15:30 15.8 6.8 55 1018.1 13.0 E 21.3 0.0 0.0
15:31 15.8 6.8 55 1018.0 13.0 E 21.3 0.0 0.0
15:32 15.9 7.1 56 1018.0 11.4 W 21.3 0.0 0.0
15:33 16.0 7.5 57 1018.0 5.4 SW 18.3 0.0 0.0
15:34 16.0 7.5 57 1018.1 6.0 NE 18.3 0.0 0.0
15:35 16.1 7.6 57 1018.0 12.1 NE 18.3 0.0 0.0
15:36 16.1 7.6 57 1017.8 7.6 NE 13.6 0.0 0.0
15:37 16.1 7.6 57 1018.1 9.2 NE 13.0 0.0 0.0
15:38 16.1 7.6 57 1018.0 15.2 W 15.2 0.0 0.0
15:39 16.0 7.2 56 1018.1 5.4 W 15.2 0.0 0.0
15:40 16.0 7.2 56 1018.1 9.8 W 15.2 0.0 0.0
15:41 15.9 7.1 56 1017.9 9.8 E 15.2 0.0 0.0
15:42 15.8 6.8 55 1018.1 9.2 N 15.2 0.0 0.0
15:43 15.7 7.0 56 1017.8 9.2 NW 15.2 0.0 0.0
15:44 15.7 7.0 56 1017.9 8.3 NW 15.2 0.0 0.0
15:45 15.7 7.2 57 1018.0 11.4 NE 15.2 0.0 0.0
15:47 15.7 7.0 56 1018.0 13.6 E 15.9 0.0 0.0
15:48 15.7 7.0 56 1017.8 13.6 N 15.9 0.0 0.0
15:49 15.7 7.0 56 1017.8 8.3 ENE 15.9 0.0 0.0
15:50 15.7 6.7 55 1018.0 19.7 E 19.7 0.0 0.0
15:51 15.7 6.7 55 1018.0 19.7 NE 19.7 0.0 0.0
15:52 15.5 6.5 55 1017.8 15.9 NNE 19.7 0.0 0.0
15:53 15.5 6.5 55 1017.9 7.6 NE 19.7 0.0 0.0
15:54 15.5 6.8 56 1017.7 9.8 NE 19.7 0.0 0.0
15:55 15.5 7.0 57 1018.0 8.3 NE 19.7 0.0 0.0
15:56 15.7 7.5 58 1017.9 9.8 E 19.7 0.0 0.0
15:57 15.8 7.3 57 1017.7 7.6 E 19.7 0.0 0.0
15:58 15.9 7.4 57 1017.8 9.2 N 19.7 0.0 0.0
15:59 16.0 7.5 57 1017.7 7.6 NE 19.7 0.0 0.0
16:00 16.0 7.5 57 1017.8 7.6 NE 19.7 0.0 0.0
16:01 16.0 7.5 57 1017.7 7.6 NE 17.4 0.0 0.0
16:03 16.1 7.3 56 1017.8 13.0 NE 13.0 0.0 0.0
16:04 16.1 7.3 56 1017.9 14.5 NE 14.5 0.0 0.0
16:05 16.1 7.3 56 1017.7 11.4 NE 14.5 0.0 0.0
16:06 16.0 7.0 55 1017.8 10.7 E 14.5 0.0 0.0
16:07 16.0 7.2 56 1017.8 12.1 NE 14.5 0.0 0.0
16:08 16.0 7.2 56 1017.9 18.3 NE 18.3 0.0 0.0
16:09 16.0 7.2 56 1017.9 8.3 N 18.3 0.0 0.0
16:10 15.9 6.9 55 1017.8 12.1 NE 18.3 0.0 0.0
16:11 15.8 6.8 55 1018.0 9.8 SE 18.3 0.0 0.0
16:12 15.8 7.0 56 1017.9 15.9 N 18.3 0.0 0.0
16:13 15.8 6.8 55 1017.8 15.9 W 18.3 0.0 0.0
16:14 15.8 6.8 55 1017.7 13.0 NE 18.3 0.0 0.0
16:15 15.8 6.8 55 1017.9 20.6 E 20.6 0.0 0.0
16:17 15.7 6.7 55 1017.9 16.8 N 20.6 0.0 0.0
16:18 15.7 6.7 55 1017.7 16.8 N 20.6 0.0 0.0
16:19 15.5 6.2 54 1017.7 16.8 N 20.6 0.0 0.0
16:20 15.5 6.5 55 1017.8 8.3 E 20.6 0.0 0.0
16:21 15.5 6.8 56 1017.8 9.8 N 20.6 0.0 0.0
16:22 15.6 7.1 57 1017.9 6.9 NE 20.6 0.0 0.0
16:23 15.7 7.5 58 1018.0 5.4 N 20.6 0.0 0.0
16:24 15.9 7.4 57 1017.8 13.0 SE 20.6 0.0 0.0
16:25 15.9 7.1 56 1017.8 15.2 NE 20.6 0.0 0.0
16:26 15.8 6.8 55 1017.8 15.9 E 16.8 0.0 0.0
16:27 15.8 6.5 54 1017.7 15.9 SE 16.8 0.0 0.0
16:28 15.8 6.5 54 1017.9 12.1 NE 16.8 0.0 0.0
16:29 15.8 6.5 54 1017.8 17.4 E 17.4 0.0 0.0
16:30 15.7 6.2 53 1018.1 15.9 NE 17.4 0.0 0.0
16:32 15.6 6.1 53 1017.9 13.6 NE 17.4 0.0 0.0
16:33 15.6 6.1 53 1017.8 13.6 NE 17.4 0.0 0.0
16:34 15.5 6.2 54 1017.9 13.6 N 17.4 0.0 0.0
16:35 15.5 6.2 54 1018.2 13.6 E 17.4 0.0 0.0
16:36 15.5 6.2 54 1018.0 13.0 W 17.4 0.0 0.0
16:37 15.5 6.2 54 1018.2 13.0 E 17.4 0.0 0.0
16:38 15.5 6.5 55 1018.0 10.7 N 17.4 0.0 0.0
16:39 15.5 6.5 55 1018.0 11.4 NE 17.4 0.0 0.0
16:40 15.5 6.5 55 1017.9 12.1 NE 17.4 0.0 0.0
16:41 15.5 6.5 55 1017.8 14.5 E 16.8 0.0 0.0
16:42 15.4 6.4 55 1018.0 6.0 NE 15.9 0.0 0.0
16:43 15.4 6.7 56 1018.0 11.4 SW 15.9 0.0 0.0
16:44 15.4 6.7 56 1017.9 8.3 NE 15.9 0.0 0.0
16:45 15.4 6.9 57 1017.9 11.4 NE 15.9 0.0 0.0
16:46 15.5 6.8 56 1018.0 13.6 NE 15.9 0.0 0.0
16:48 15.4 6.7 56 1017.9 11.4 NE 15.9 0.0 0.0
16:49 15.4 6.7 56 1017.9 7.6 E 15.9 0.0 0.0
16:50 15.5 7.0 57 1018.0 7.6 E 15.9 0.0 0.0
16:51 15.5 6.8 56 1018.1 7.6 SW 15.9 0.0 0.0
16:52 15.6 7.1 57 1018.2 6.0 NW 15.9 0.0 0.0
16:53 15.6 7.1 57 1017.9 6.9 N 13.6 0.0 0.0
16:54 15.7 7.2 57 1017.9 9.2 SW 13.6 0.0 0.0
16:55 15.7 7.0 56 1018.0 13.0 N 13.6 0.0 0.0
16:56 15.6 6.6 55 1017.9 18.3 N 18.3 0.0 0.0
16:57 15.6 6.3 54 1018.0 9.2 NE 18.3 0.0 0.0
16:58 15.5 6.5 55 1018.0 9.8 NE 18.3 0.0 0.0
16:59 15.5 6.2 54 1017.9 9.2 NE 18.3 0.0 0.0
17:00 15.5 6.2 54 1017.9 9.2 NE 18.3 0.0 0.0
17:01 15.5 6.2 54 1017.8 9.2 NE 18.3 0.0 0.0
17:02 15.4 6.1 54 1018.0 15.2 NE 18.3 0.0 0.0
17:04 15.5 6.2 54 1018.2 13.6 E 18.3 0.0 0.0
17:05 15.5 6.2 54 1017.9 13.6 NW 18.3 0.0 0.0
17:06 15.4 5.9 53 1018.0 16.8 NE 18.3 0.0 0.0
17:07 15.3 5.8 53 1018.1 16.8 SW 16.8 0.0 0.0
17:08 15.2 5.7 53 1017.8 14.5 SSE 16.8 0.0 0.0
17:09 15.1 5.9 54 1018.1 14.5 W 16.8 0.0 0.0
17:10 15.1 5.9 54 1018.1 12.1 NW 16.8 0.0 0.0
17:11 15.1 5.9 54 1018.1 12.1 NE 16.8 0.0 0.0
17:12 15.0 5.8 54 1018.0 15.9 NE 16.8 0.0 0.0
17:14 15.0 6.0 55 1018.0 14.5 NE 16.8 0.0 0.0
17:15 15.0 6.0 55 1018.1 15.9 N 16.8 0.0 0.0
17:16 15.0 6.0 55 1017.9 18.3 N 18.3 0.0 0.0
17:17 15.0 6.0 55 1017.8 14.5 NE 18.3 0.0 0.0
17:18 15.0 6.0 55 1018.0 13.0 NE 18.3 0.0 0.0
17:19 15.0 6.0 55 1018.1 14.5 E 18.3 0.0 0.0
17:20 15.0 6.0 55 1017.9 13.6 NE 18.3 0.0 0.0
17:21 14.9 5.9 55 1018.1 13.6 N 18.3 0.0 0.0
17:22 14.9 6.2 56 1018.0 7.6 NE 18.3 0.0 0.0
17:23 15.0 6.3 56 1018.0 11.4 NE 18.3 0.0 0.0
17:24 15.0 6.3 56 1018.0 13.0 E 18.3 0.0 0.0
17:25 14.9 6.2 56 1017.9 14.5 E 18.3 0.0 0.0
17:26 14.9 6.5 57 1018.0 11.4 NE 14.5 0.0 0.0
17:28 14.9 6.5 57 1017.9 9.8 NE 14.5 0.0 0.0
17:29 15.0 6.6 57 1018.1 11.4 NE 14.5 0.0 0.0
17:30 15.0 6.6 57 1018.3 13.0 NE 14.5 0.0 0.0
17:31 15.0 6.6 57 1017.8 8.3 NE 14.5 0.0 0.0
17:32 15.0 6.3 56 1018.0 14.5 E 15.9 0.0 0.0
17:33 14.9 6.2 56 1018.1 14.5 N 15.9 0.0 0.0
17:34 14.9 6.2 56 1018.1 15.9 E 15.9 0.0 0.0
17:35 14.9 6.2 56 1018.2 15.9 NE 15.9 0.0 0.0
17:36 14.8 6.1 56 1017.9 17.4 NE 17.4 0.0 0.0
17:37 14.8 5.9 55 1018.0 17.4 NW 17.4 0.0 0.0
17:38 14.8 6.1 56 1018.1 6.0 NE 17.4 0.0 0.0
17:39 14.8 6.1 56 1018.0 7.6 NE 17.4 0.0 0.0
17:40 14.8 6.4 57 1018.0 9.8 NE 17.4 0.0 0.0
17:41 14.8 6.4 57 1018.2 18.3 NE 18.3 0.0 0.0
17:42 14.8 6.1 56 1018.2 13.6 SSE 18.3 0.0 0.0
17:44 14.7 6.0 56 1018.0 9.8 W 18.3 0.0 0.0
17:45 14.7 6.0 56 1018.0 13.0 NE 18.3 0.0 0.0
17:46 14.7 6.0 56 1018.1 13.0 NE 18.3 0.0 0.0
17:47 14.7 6.0 56 1018.1 13.0 NE 18.3 0.0 0.0
17:48 14.6 5.9 56 1018.2 13.6 NE 18.3 0.0 0.0
17:49 14.6 5.9 56 1018.1 19.0 NE 19.0 0.0 0.0
17:50 14.5 5.8 56 1018.1 13.6 NE 19.0 0.0 0.0
17:51 14.5 5.8 56 1018.0 15.2 NE 19.0 0.0 0.0
17:52 14.4 5.7 56 1017.9 14.5 E 19.0 0.0 0.0
17:53 14.4 5.7 56 1017.9 13.6 NE 19.0 0.0 0.0
17:54 14.3 5.9 57 1018.3 11.4 NE 19.0 0.0 0.0
17:55 14.3 5.9 57 1018.0 11.4 N 19.0 0.0 0.0
17:56 14.3 5.9 57 1018.1 11.4 SW 19.0 0.0 0.0
17:58 14.4 6.2 58 1018.0 10.7 N 19.0 0.0 0.0
17:59 14.4 6.2 58 1018.3 7.6 NE 19.0 0.0 0.0
18:00 14.4 6.2 58 1018.0 7.6 NE 15.2 0.0 0.0
18:01 14.4 6.2 58 1018.1 7.6 NE 15.2 0.0 0.0
18:02 14.4 6.2 58 1018.0 7.6 NE 14.5 0.0 0.0
18:03 14.5 6.3 58 1018.1 9.8 NE 13.6 0.0 0.0
18:04 14.5 6.1 57 1018.0 17.4 NW 17.4 0.0 0.0
18:05 14.4 6.0 57 1018.2 9.2 E 17.4 0.0 0.0
18:06 14.4 6.0 57 1018.2 11.4 S 17.4 0.0 0.0
18:07 14.4 6.0 57 1017.9 13.0 NE 17.4 0.0 0.0
18:08 14.4 6.2 58 1018.0 11.4 NE 17.4 0.0 0.0
18:09 14.5 6.3 58 1018.1 8.3 NE 17.4 0.0 0.0
18:10 14.5 6.1 57 1018.0 14.5 N 17.4 0.0 0.0
18:12 14.4 5.7 56 1018.1 14.5 NE 17.4 0.0 0.0
18:13 14.4 5.7 56 1018.2 14.5 NE 17.4 0.0 0.0
18:14 14.3 5.6 56 1018.2 15.2 NE 17.4 0.0 0.0
18:15 14.2 5.6 56 1018.0 15.2 NE 15.2 0.0 0.0
18:16 14.2 5.8 57 1018.0 13.0 N 15.2 0.0 0.0
18:17 14.1 5.5 56 1018.1 21.3 E 21.3 0.0 0.0
18:18 14.1 5.5 56 1018.0 21.3 NE 21.3 0.0 0.0
18:19 14.1 5.5 56 1018.1 21.3 NE 21.3 0.0 0.0
18:20 14.0 5.9 58 1018.1 7.6 NE 21.3 0.0 0.0
18:21 14.0 5.9 58 1018.0 10.7 E 21.3 0.0 0.0
18:22 14.0 5.9 58 1018.1 16.8 NNE 21.3 0.0 0.0
18:23 13.9 5.8 58 1018.1 13.0 E 21.3 0.0 0.0
18:24 13.9 5.8 58 1018.0 13.0 E 21.3 0.0 0.0
18:25 13.8 5.7 58 1018.0 13.0 N 21.3 0.0 0.0
18:27 13.8 5.9 59 1018.1 15.9 E 21.3 0.0 0.0
18:28 13.7 5.8 59 1018.1 11.4 NE 21.3 0.0 0.0
18:29 13.7 5.8 59 1018.2 9.8 NE 16.8 0.0 0.0
18:30 13.7 5.8 59 1018.2 9.8 SW 16.8 0.0 0.0
18:31 13.7 5.8 59 1018.1 9.8 NE 16.8 0.0 0.0
18:32 13.7 5.8 59 1018.2 12.1 NE 16.8 0.0 0.0
18:33 13.7 5.8 59 1018.3 13.6 NE 15.9 0.0 0.0
18:34 13.7 5.8 59 1018.3 7.6 NW 15.9 0.0 0.0
18:35 13.7 5.8 59 1018.1 10.7 N 15.9 0.0 0.0
18:36 13.7 5.8 59 1017.9 11.4 NE 15.9 0.0 0.0
18:37 13.7 5.8 59 1018.4 11.4 E 15.9 0.0 0.0
18:38 13.6 6.0 60 1018.1 4.5 SW 13.6 0.0 0.0
18:39 13.6 6.0 60 1018.3 8.3 NNE 13.6 0.0 0.0
18:41 13.6 6.0 60 1018.1 13.0 NE 13.6 0.0 0.0
18:42 13.6 6.0 60 1018.4 13.6 NE 13.6 0.0 0.0
18:43 13.6 6.0 60 1018.1 14.5 NE 14.5 0.0 0.0
18:44 13.5 5.9 60 1018.3 9.8 E 14.5 0.0 0.0
18:45 13.5 5.9 60 1018.3 6.0 NE 14.5 0.0 0.0
18:46 13.5 5.9 60 1018.3 7.6 NE 14.5 0.0 0.0
18:47 13.5 5.9 60 1018.3 13.0 NE 14.5 0.0 0.0
18:48 13.5 5.9 60 1018.2 12.1 SE 14.5 0.0 0.0
18:49 13.4 5.8 60 1018.1 13.6 E 14.5 0.0 0.0
18:50 13.4 6.0 61 1018.0 12.1 SSE 14.5 0.0 0.0
18:51 13.3 5.9 61 1018.2 13.0 E 14.5 0.0 0.0
18:52 13.3 5.9 61 1018.1 13.6 S 14.5 0.0 0.0
18:53 13.3 5.9 61 1018.2 13.0 NE 14.5 0.0 0.0
18:55 13.2 5.8 61 1018.3 19.0 NNE 19.0 0.0 0.0
18:56 13.1 6.0 62 1018.2 10.7 E 19.0 0.0 0.0
18:57 13.1 6.0 62 1018.2 13.6 NE 19.0 0.0 0.0
18:58 13.1 6.0 62 1018.4 8.3 E 19.0 0.0 0.0
18:59 13.1 6.0 62 1018.3 12.1 NE 19.0 0.0 0.0
19:00 13.1 6.2 63 1018.3 12.1 E 19.0 0.0 0.0
19:01 13.1 6.2 63 1018.3 12.1 E 19.0 0.0 0.0
19:02 13.1 6.2 63 1018.3 12.1 E 19.0 0.0 0.0
19:03 13.1 6.2 63 1018.1 13.0 NE 19.0 0.0 0.0
19:04 13.1 6.2 63 1018.4 8.3 NE 19.0 0.0 0.0
19:05 13.1 6.2 63 1018.4 13.0 NE 19.0 0.0 0.0
19:06 13.1 6.2 63 1018.4 13.6 E 13.6 0.0 0.0
19:07 13.0 6.1 63 1018.2 5.4 N 13.6 0.0 0.0
19:08 13.0 6.1 63 1018.4 9.2 NE 13.6 0.0 0.0
19:09 13.0 6.1 63 1018.3 7.6 NE 13.6 0.0 0.0
19:11 13.0 6.1 63 1018.4 12.1 NE 13.6 0.0 0.0
19:12 13.0 6.4 64 1018.4 7.6 SW 13.6 0.0 0.0
19:13 13.0 6.4 64 1018.3 12.1 NW 13.6 0.0 0.0
19:14 13.0 6.4 64 1018.5 12.1 E 13.6 0.0 0.0
19:15 13.0 6.4 64 1018.5 9.2 SE 13.6 0.0 0.0
19:16 12.9 6.3 64 1018.4 6.0 N 13.6 0.0 0.0
19:17 12.9 6.3 64 1018.3 7.6 NE 13.0 0.0 0.0
19:18 12.9 6.3 64 1018.5 8.3 NE 13.0 0.0 0.0
19:20 12.9 6.3 64 1018.5 4.5 E 13.0 0.0 0.0
19:21 12.9 6.3 64 1018.5 8.3 E 13.0 0.0 0.0
19:22 12.9 6.3 64 1018.6 8.3 NE 13.0 0.0 0.0
19:23 12.9 6.3 64 1018.4 13.0 E 13.0 0.0 0.0
19:24 12.9 6.3 64 1018.6 7.6 NE 13.0 0.0 0.0
19:25 12.9 6.3 64 1018.5 6.9 NW 13.0 0.0 0.0
19:26 12.9 6.3 64 1018.3 6.9 N 13.0 0.0 0.0
19:27 12.9 6.5 65 1018.4 7.6 NE 13.0 0.0 0.0
19:28 12.9 6.5 65 1018.4 13.0 E 15.2 0.0 0.0
19:29 12.8 6.4 65 1018.4 6.9 N 15.2 0.0 0.0
19:30 12.8 6.4 65 1018.6 9.8 NE 15.2 0.0 0.0
19:31 12.8 6.4 65 1018.5 5.4 NW 15.2 0.0 0.0
19:32 12.8 6.4 65 1018.4 4.5 NE 15.2 0.0 0.0
19:33 12.8 6.4 65 1018.5 6.9 S 15.2 0.0 0.0
19:34 12.7 6.3 65 1018.4 10.7 E 15.2 0.0 0.0
19:36 12.7 6.3 65 1018.5 9.2 NE 15.2 0.0 0.0
19:37 12.7 6.3 65 1018.4 8.3 E 15.2 0.0 0.0
19:38 12.6 6.2 65 1018.7 4.5 NE 13.0 0.0 0.0
19:39 12.6 6.2 65 1018.6 7.6 N 12.1 0.0 0.0
19:40 12.6 6.4 66 1018.5 7.6 NE 12.1 0.0 0.0
19:41 12.6 6.4 66 1018.5 6.0 NE 10.7 0.0 0.0
19:42 12.5 6.3 66 1018.5 7.6 SW 10.7 0.0 0.0
19:43 12.5 6.3 66 1018.4 8.3 NE 10.7 0.0 0.0
19:44 12.4 7.1 70 1018.5 13.0 NE 14.5 0.0 0.0
19:45 12.4 7.1 70 1018.6 10.7 E 14.5 0.0 0.0
19:46 12.3 7.0 70 1018.7 7.6 E 14.5 0.0 0.0
19:47 12.3 7.0 70 1018.5 7.6 NE 14.5 0.0 0.0
19:48 12.3 7.0 70 1018.7 6.9 NE 14.5 0.0 0.0
19:49 12.3 7.0 70 1018.5 9.8 NE 14.5 0.0 0.0
19:50 12.2 6.9 70 1018.6 10.7 NE 14.5 0.0 0.0
19:52 12.1 6.8 70 1018.7 10.7 NE 14.5 0.0 0.0
19:53 12.1 6.8 70 1018.6 10.7 SW 14.5 0.0 0.0
19:54 12.0 6.7 70 1018.7 6.9 NE 13.0 0.0 0.0
19:55 12.0 6.7 70 1018.7 7.6 E 10.7 0.0 0.0
19:56 11.9 6.6 70 1018.7 9.8 NE 10.7 0.0 0.0
19:57 11.9 6.6 70 1018.6 9.8 NW 10.7 0.0 0.0
19:58 11.8 6.5 70 1018.7 8.3 E 10.7 0.0 0.0
19:59 11.8 6.7 71 1018.7 9.2 N 10.7 0.0 0.0
20:00 11.8 6.7 71 1018.5 13.0 NE 13.0 0.0 0.0
20:01 11.8 6.7 71 1018.7 13.0 NE 13.0 0.0 0.0
20:02 11.7 6.6 71 1018.6 13.0 NE 13.0 0.0 0.0
20:03 11.6 6.5 71 1018.9 10.7 NE 13.0 0.0 0.0
20:04 11.6 6.5 71 1018.7 6.9 N 13.0 0.0 0.0
20:05 11.5 6.4 71 1018.7 12.1 E 13.0 0.0 0.0
20:07 11.4 6.5 72 1018.8 12.1 N 13.0 0.0 0.0
20:08 11.4 6.5 72 1018.6 9.8 NE 13.0 0.0 0.0
20:09 11.4 6.5 72 1018.7 9.2 NE 13.0 0.0 0.0
20:10 11.4 6.5 72 1018.9 9.2 NE 13.0 0.0 0.0
20:11 11.3 6.4 72 1018.7 13.0 NW 13.0 0.0 0.0
20:12 11.2 6.3 72 1018.9 9.2 NE 13.0 0.0 0.0
20:13 11.1 6.2 72 1018.8 9.2 NE 13.0 0.0 0.0
20:14 11.1 6.2 72 1018.7 6.0 W 13.0 0.0 0.0
20:15 11.1 6.4 73 1018.8 9.8 NE 13.0 0.0 0.0
20:16 11.0 6.3 73 1018.8 14.5 NE 14.5 0.0 0.0
20:17 10.9 6.3 73 1018.9 13.6 NW 14.5 0.0 0.0
20:18 10.9 6.3 73 1018.7 14.5 NE 14.5 0.0 0.0
20:19 10.8 6.2 73 1018.9 11.4 N 14.5 0.0 0.0
20:20 10.8 6.2 73 1019.0 8.3 S 14.5 0.0 0.0
20:21 10.8 6.2 73 1018.8 12.1 E 14.5 0.0 0.0
20:22 10.7 6.3 74 1018.8 9.8 N 14.5 0.0 0.0
20:23 10.7 6.3 74 1018.8 10.7 NE 14.5 0.0 0.0
20:25 10.6 6.2 74 1019.1 10.7 E 14.5 0.0 0.0
20:26 10.6 6.2 74 1018.7 10.7 ESE 14.5 0.0 0.0
20:27 10.6 6.2 74 1018.7 10.7 NE 14.5 0.0 0.0
20:28 10.5 6.1 74 1018.8 9.2 N 14.5 0.0 0.0
20:29 10.5 6.1 74 1018.9 9.2 N 14.5 0.0 0.0
20:30 10.5 6.1 74 1018.9 7.6 NW 12.1 0.0 0.0
20:31 10.5 6.3 75 1018.8 7.6 NW 12.1 0.0 0.0
20:32 10.4 6.2 75 1018.9 9.2 W 12.1 0.0 0.0
20:33 10.4 6.2 75 1018.9 10.7 E 10.7 0.0 0.0
20:34 10.4 6.2 75 1018.9 9.2 S 11.4 0.0 0.0
20:35 10.3 6.1 75 1018.9 10.7 E 11.4 0.0 0.0
20:36 10.3 6.1 75 1019.0 13.0 SE 13.0 0.0 0.0
20:37 10.3 6.1 75 1018.8 13.0 SW 13.0 0.0 0.0
20:38 10.3 6.1 75 1019.0 6.9 SW 13.0 0.0 0.0
20:39 10.3 6.1 75 1019.0 6.9 NE 13.0 0.0 0.0
20:40 10.3 6.3 76 1018.8 9.2 N 13.0 0.0 0.0
20:42 10.2 6.2 76 1019.1 13.0 E 13.0 0.0 0.0
20:43 10.2 6.2 76 1018.9 9.2 E 13.0 0.0 0.0
20:44 10.2 6.2 76 1019.0 5.4 NE 13.0 0.0 0.0
20:45 10.2 6.2 76 1019.0 11.4 NE 13.0 0.0 0.0
20:46 10.2 6.2 76 1018.9 9.2 NE 13.0 0.0 0.0
20:47 10.2 6.2 76 1018.9 9.2 N 13.0 0.0 0.0
20:48 10.1 6.3 77 1018.9 5.4 N 13.0 0.0 0.0
20:49 10.1 6.3 77 1019.1 8.3 NE 13.0 0.0 0.0
20:50 10.1 6.3 77 1018.8 8.3 E 13.0 0.0 0.0
20:51 10.1 6.3 77 1019.0 7.6 E 13.0 0.0 0.0
20:52 10.0 6.2 77 1018.9 9.2 NW 12.1 0.0 0.0
20:53 10.0 6.2 77 1018.9 9.2 NW 12.1 0.0 0.0
20:54 10.0 6.3 78 1019.1 10.7 NE 11.4 0.0 0.0
20:55 10.0 6.3 78 1019.2 13.6 NE 13.6 0.0 0.0
20:56 10.0 6.3 78 1018.9 13.6 SE 13.6 0.0 0.0
20:58 10.0 6.3 78 1019.0 5.4 SE 13.6 0.0 0.0
20:59 10.0 6.5 79 1019.1 9.8 NE 13.6 0.0 0.0
21:00 9.9 6.4 79 1019.0 9.8 E 13.6 0.0 0.0
21:01 9.9 6.4 79 1019.4 9.8 E 13.6 0.0 0.0
21:02 9.9 6.4 79 1019.1 9.8 E 13.6 0.0 0.0
21:03 9.9 6.4 79 1019.2 9.8 E 13.6 0.0 0.0
21:04 9.9 6.4 79 1019.3 9.8 E 13.6 0.0 0.0
21:05 9.9 6.4 79 1019.0 9.8 E 13.6 0.0 0.0
21:06 9.9 6.4 79 1018.9 9.8 E 13.6 0.0 0.0
21:07 9.8 6.3 79 1019.4 8.3 NE 9.8 0.0 0.0
21:08 9.8 6.3 79 1019.2 11.4 N 11.4 0.0 0.0
21:09 9.8 6.3 79 1019.2 13.0 NE 13.0 0.0 0.0
21:10 9.8 6.3 79 1019.3 10.7 N 13.0 0.0 0.0
21:11 9.8 6.3 79 1019.2 8.3 NW 13.0 0.0 0.0
21:12 9.8 6.3 79 1019.3 8.3 NW 13.0 0.0 0.0
21:14 9.7 6.2 79 1019.2 11.4 N 13.0 0.0 0.0
21:15 9.7 6.2 79 1019.6 11.4 N 13.0 0.0 0.0
21:16 9.7 6.2 79 1019.3 10.7 N 13.0 0.0 0.0
21:17 9.7 6.2 79 1019.4 10.7 E 13.0 0.0 0.0
21:18 9.7 6.2 79 1019.4 6.9 NE 13.0 0.0 0.0
21:19 9.7 6.2 79 1019.4 9.2 E 13.0 0.0 0.0
21:20 9.7 6.2 79 1019.4 9.8 NE 13.0 0.0 0.0
21:21 9.6 6.1 79 1019.4 8.3 NE 13.0 0.0 0.0
21:22 9.6 6.1 79 1019.6 9.2 NE 13.0 0.0 0.0
21:23 9.6 6.1 79 1019.6 6.0 N 13.0 0.0 0.0
21:25 9.6 6.1 79 1019.5 9.2 N 11.4 0.0 0.0
21:26 9.6 6.1 79 1019.4 16.8 NE 16.8 0.0 0.0
21:27 9.6 6.1 79 1019.6 13.0 E 16.8 0.0 0.0
21:28 9.6 6.1 79 1019.5 10.7 NE 16.8 0.0 0.0
21:29 9.6 6.1 79 1019.5 10.7 E 16.8 0.0 0.0
21:30 9.6 6.1 79 1019.6 9.8 E 16.8 0.0 0.0
21:31 9.6 6.1 79 1019.7 9.8 E 16.8 0.0 0.0
21:32 9.6 6.1 79 1019.7 8.3 W 16.8 0.0 0.0
21:33 9.5 6.0 79 1019.2 6.0 N 16.8 0.0 0.0
21:34 9.5 6.0 79 1019.6 8.3 SE 16.8 0.0 0.0
21:35 9.5 6.0 79 1019.4 7.6 NW 16.8 0.0 0.0
21:36 9.5 6.0 79 1019.6 7.6 N 13.0 0.0 0.0
21:37 9.5 6.0 79 1019.5 8.3 NE 10.7 0.0 0.0
21:38 9.5 6.0 79 1019.6 6.0 WSW 10.7 0.0 0.0
21:40 9.5 6.0 79 1019.5 13.0 E 13.0 0.0 0.0
21:41 9.5 6.0 79 1019.3 8.3 SW 13.0 0.0 0.0
21:42 9.5 6.0 79 1019.5 9.8 NE 13.0 0.0 0.0
21:43 9.5 6.0 79 1019.5 9.8 W 13.0 0.0 0.0
21:44 9.5 6.0 79 1019.6 8.3 NW 13.0 0.0 0.0
21:45 9.5 6.0 79 1019.3 8.3 W 13.0 0.0 0.0
21:46 9.5 6.0 79 1019.6 10.7 NW 13.0 0.0 0.0
21:47 9.4 6.1 80 1019.7 3.8 NE 13.0 0.0 0.0
21:48 9.4 6.1 80 1019.8 5.4 N 13.0 0.0 0.0
21:49 9.4 6.1 80 1019.6 7.6 NE 13.0 0.0 0.0
21:50 9.4 6.1 80 1019.6 9.8 NE 13.0 0.0 0.0
21:51 9.4 6.1 80 1019.4 9.8 N 10.7 0.0 0.0
21:52 9.4 6.1 80 1019.6 10.7 SE 10.7 0.0 0.0
21:53 9.4 6.1 80 1019.7 10.7 NE 10.7 0.0 0.0
21:54 9.4 6.1 80 1019.8 7.6 NNE 10.7 0.0 0.0
21:55 9.4 6.1 80 1019.4 5.4 NE 10.7 0.0 0.0
21:56 9.4 6.1 80 1019.7 3.1 SE 10.7 0.0 0.0
21:57 9.4 6.1 80 1019.7 3.8 NW 10.7 0.0 0.0
21:58 9.4 6.1 80 1019.5 10.7 N 10.7 0.0 0.0
21:59 9.4 6.1 80 1019.9 11.4 NE 11.4 0.0 0.0
22:01 9.4 6.1 80 1019.9 10.7 NE 11.4 0.0 0.0
22:02 9.4 6.1 80 1019.9 9.2 NE 11.4 0.0 0.0
22:03 9.4 6.1 80 1019.9 9.2 NW 11.4 0.0 0.0
22:04 9.4 6.1 80 1019.8 9.8 NE 11.4 0.0 0.0
22:05 9.4 6.1 80 1019.9 13.0 SE 13.0 0.0 0.0
22:06 9.4 6.1 80 1019.7 10.7 NNE 13.0 0.0 0.0
22:07 9.4 6.1 80 1019.8 10.7 NW 13.0 0.0 0.0
22:08 9.4 6.1 80 1019.9 9.8 NE 13.0 0.0 0.0
22:09 9.4 6.1 80 1019.8 9.8 SW 13.0 0.0 0.0
22:10 9.4 6.1 80 1019.8 10.7 NW 13.0 0.0 0.0
22:11 9.4 6.3 81 1019.9 9.2 NE 13.0 0.0 0.0
22:12 9.4 6.3 81 1020.0 11.4 E 13.0 0.0 0.0
22:13 9.4 6.3 81 1019.8 10.7 N 13.0 0.0 0.0
22:14 9.4 6.3 81 1020.0 9.2 S 13.0 0.0 0.0
22:15 9.4 6.3 81 1019.9 10.7 NE 11.4 0.0 0.0
22:16 9.4 6.3 81 1019.7 10.7 NE 11.4 0.0 0.0
22:18 9.4 6.3 81 1019.9 11.4 NE 11.4 0.0 0.0
22:19 9.4 6.3 81 1019.9 9.2 S 11.4 0.0 0.0
22:20 9.4 6.3 81 1019.7 10.7 N 11.4 0.0 0.0
22:21 9.4 6.3 81 1020.1 7.6 NE 11.4 0.0 0.0
22:22 9.4 6.3 81 1019.7 13.6 NW 13.6 0.0 0.0
22:23 9.4 6.3 81 1019.9 13.6 N 13.6 0.0 0.0
22:24 9.4 6.3 81 1019.9 9.2 N 13.6 0.0 0.0
22:26 9.4 6.3 81 1019.9 11.4 NE 13.6 0.0 0.0
22:27 9.4 6.3 81 1019.9 11.4 NE 13.6 0.0 0.0
22:28 9.3 6.2 81 1019.9 10.7 NE 13.6 0.0 0.0
22:29 9.3 6.2 81 1020.2 6.9 NE 13.6 0.0 0.0
22:30 9.3 6.2 81 1020.1 9.8 ESE 13.6 0.0 0.0
22:31 9.3 6.2 81 1020.0 10.7 E 13.6 0.0 0.0
22:32 9.3 6.2 81 1019.9 11.4 ENE 13.6 0.0 0.0
22:33 9.3 6.2 81 1020.0 12.1 NE 13.6 0.0 0.0
22:34 9.3 6.2 81 1020.1 9.2 NE 12.1 0.0 0.0
22:35 9.3 6.2 81 1020.0 9.8 N 12.1 0.0 0.0
22:36 9.3 6.2 81 1020.1 8.3 NE 12.1 0.0 0.0
22:37 9.3 6.2 81 1020.1 7.6 N 12.1 0.0 0.0
22:38 9.3 6.2 81 1020.1 5.4 NNE 12.1 0.0 0.0
22:39 9.3 6.2 81 1020.1 9.8 NE 12.1 0.0 0.0
22:40 9.3 6.2 81 1020.0 9.8 N 12.1 0.0 0.0
22:42 9.3 6.2 81 1020.1 6.9 N 12.1 0.0 0.0
22:43 9.3 6.2 81 1020.1 6.9 N 12.1 0.0 0.0
22:44 9.2 6.1 81 1020.0 9.8 NE 9.8 0.0 0.0
22:45 9.2 6.1 81 1019.9 6.9 NE 9.8 0.0 0.0
22:46 9.2 6.1 81 1020.1 9.2 NE 9.8 0.0 0.0
22:47 9.2 6.1 81 1020.0 8.3 NE 9.8 0.0 0.0
22:48 9.2 6.1 81 1020.1 9.2 NE 9.8 0.0 0.0
22:49 9.2 6.1 81 1020.0 11.4 NE 11.4 0.0 0.0
22:50 9.2 6.1 81 1020.1 13.0 E 13.0 0.0 0.0
22:51 9.2 6.1 81 1020.3 13.0 SW 13.0 0.0 0.0
22:52 9.2 6.1 81 1019.9 14.5 N 14.5 0.0 0.0
22:53 9.2 6.1 81 1020.1 12.1 NE 14.5 0.0 0.0
22:54 9.2 6.1 81 1020.1 10.7 E 14.5 0.0 0.0
22:55 9.2 6.1 81 1019.9 10.7 NE 14.5 0.0 0.0
22:56 9.2 6.1 81 1020.0 6.9 E 14.5 0.0 0.0
22:58 9.2 6.1 81 1020.0 10.7 NE 14.5 0.0 0.0
22:59 9.2 6.1 81 1020.0 10.7 NE 14.5 0.0 0.0
23:00 9.2 6.1 81 1019.9 8.3 NW 14.5 0.0 0.0
23:01 9.2 6.1 81 1019.9 8.3 NW 14.5 0.0 0.0
23:02 9.2 6.1 81 1020.0 8.3 NW 14.5 0.0 0.0
23:03 9.2 6.1 81 1020.1 8.3 NW 13.0 0.0 0.0
23:04 9.2 6.1 81 1020.0 8.3 NW 13.0 0.0 0.0
23:05 9.2 6.1 81 1020.1 8.3 NW 13.0 0.0 0.0
23:06 9.2 6.1 81 1020.2 8.3 NW 13.0 0.0 0.0
23:07 9.1 6.0 81 1020.1 10.7 NE 10.7 0.0 0.0
23:08 9.1 6.0 81 1020.1 10.7 E 10.7 0.0 0.0
23:09 9.1 6.0 81 1020.2 8.3 N 10.7 0.0 0.0
23:10 9.1 6.0 81 1020.2 10.7 N 10.7 0.0 0.0
23:11 9.1 6.0 81 1020.2 10.7 W 10.7 0.0 0.0
23:12 9.1 6.0 81 1020.3 5.4 NW 10.7 0.0 0.0
23:13 9.1 6.0 81 1020.1 5.4 N 10.7 0.0 0.0
23:14 9.1 6.0 81 1020.1 10.7 W 10.7 0.0 0.0
23:15 9.1 6.0 81 1020.0 10.7 SE 10.7 0.0 0.0
23:16 9.1 6.0 81 1020.2 10.7 NE 10.7 0.0 0.0
23:17 9.1 6.0 81 1020.2 6.9 NNW 10.7 0.0 0.0
23:18 9.1 6.0 81 1020.2 7.6 NE 10.7 0.0 0.0
23:19 9.1 6.0 81 1020.2 6.9 W 10.7 0.0 0.0
23:20 9.1 6.0 81 1020.2 6.9 W 10.7 0.0 0.0
23:21 9.1 6.0 81 1020.2 9.2 SE 10.7 0.0 0.0
23:22 9.1 6.0 81 1020.1 9.2 NE 10.7 0.0 0.0
23:23 9.1 6.0 81 1020.2 9.2 NE 10.7 0.0 0.0
23:25 9.1 6.0 81 1020.1 11.4 NE 12.1 0.0 0.0
23:26 9.1 6.0 81 1020.2 10.7 SE 12.1 0.0 0.0
23:27 9.1 6.0 81 1020.3 9.8 W 12.1 0.0 0.0
23:28 9.1 6.0 81 1020.2 9.8 N 12.1 0.0 0.0
23:29 9.1 6.0 81 1020.3 8.3 NE 12.1 0.0 0.0
23:30 9.1 6.0 81 1020.4 9.2 E 12.1 0.0 0.0
23:31 9.1 6.0 81 1020.3 8.3 NW 12.1 0.0 0.0
23:32 9.1 6.0 81 1020.3 9.2 NE 12.1 0.0 0.0
23:33 9.1 6.0 81 1020.5 8.3 NE 12.1 0.0 0.0
23:34 9.1 6.0 81 1020.1 9.2 N 12.1 0.0 0.0
23:35 9.1 6.0 81 1020.4 9.2 NE 10.7 0.0 0.0
23:36 9.1 6.0 81 1020.3 9.2 NE 9.8 0.0 0.0
23:37 9.1 6.0 81 1020.1 7.6 E 9.8 0.0 0.0
23:39 9.1 6.0 81 1020.3 6.0 N 12.1 0.0 0.0
23:40 9.1 6.0 81 1020.2 10.7 SE 12.1 0.0 0.0
23:41 9.1 6.0 81 1020.3 11.4 SE 12.1 0.0 0.0
23:42 9.1 6.0 81 1020.3 6.9 NE 12.1 0.0 0.0
23:43 9.1 6.0 81 1020.3 6.9 NE 12.1 0.0 0.0
23:44 9.1 6.0 81 1020.3 9.8 NE 12.1 0.0 0.0
23:45 9.1 6.0 81 1020.2 9.8 NE 12.1 0.0 0.0
23:46 9.1 6.0 81 1020.3 8.3 E 12.1 0.0 0.0
23:47 9.1 6.0 81 1020.4 7.6 N 12.1 0.0 0.0
23:48 9.1 6.0 81 1020.2 11.4 NE 12.1 0.0 0.0
23:49 9.1 6.0 81 1020.3 6.0 S 11.4 0.0 0.0
23:50 9.0 5.9 81 1020.5 6.9 E 11.4 0.0 0.0
23:51 9.0 5.9 81 1020.4 12.1 E 12.1 0.0 0.0
23:52 9.0 5.9 81 1020.3 12.1 SE 12.1 0.0 0.0
23:53 9.0 5.9 81 1020.4 8.3 E 12.1 0.0 0.0
23:54 9.0 5.9 81 1020.3 15.2 E 15.2 0.0 0.0
23:56 9.0 5.9 81 1020.4 13.6 NE 15.2 0.0 0.0
23:57 9.0 5.9 81 1020.1 9.2 NE 15.2 0.0 0.0
23:58 9.0 5.9 81 1020.3 7.6 NW 15.2 0.0 0.0
23:59 9.0 5.9 81 1020.3 7.6 NW 15.2 0.0 0.0

 

 

UK - WEATHER STATION TOPSITES - UK World Weather Websites

Copyright © Carnkie Weather 2009 - 2021.